<?xml version="1.0" encoding="UTF-8" standalone="no" ?>
<gpx xmlns="http://www.topografix.com/GPX/1/1" xmlns:xsi="http://www.w3.org/2001/XMLSchema-instance" xsi:schemaLocation="http://www.topografix.com/GPX/1/1 http://www.topografix.com/GPX/1/1/gpx.xsd" version="1.1" creator="VisuGPX - https://www.visugpx.com">
  <metadata>
    <name>Montflanquin Gravel</name>
    <desc><![CDATA[Hors asphalte gravel OK (testé avec Diverge 4, pneus 50mm)]]></desc>
  </metadata>
  <wpt lat="44.5662" lon="0.73317">
    <ele>120.6</ele>
    <name><![CDATA[David haut/bas]]></name>
  </wpt>
  <wpt lat="44.55013" lon="0.85946">
    <ele>126.4</ele>
  </wpt>
  <trk>
    <name><![CDATA[Superbe sous bois]]></name>
    <extensions>
      <line xmlns="http://www.topografix.com/GPX/gpx_style/0/2">
        <color>FF00FF</color>
        <opacity>1</opacity>
        <width>4</width>
      </line>
    </extensions>
    <trkseg>
      <trkpt lat="44.61485" lon="0.77202">
        <ele>158.2</ele>
        <time>2026-08-15T07:51:06Z</time>
      </trkpt>
      <trkpt lat="44.61482" lon="0.77202">
        <ele>158.6</ele>
        <time>2026-08-15T07:51:07Z</time>
      </trkpt>
      <trkpt lat="44.61479" lon="0.77202">
        <ele>158.8</ele>
        <time>2026-08-15T07:51:08Z</time>
      </trkpt>
      <trkpt lat="44.61476" lon="0.77202">
        <ele>159.4</ele>
        <time>2026-08-15T07:51:09Z</time>
      </trkpt>
      <trkpt lat="44.61472" lon="0.77203">
        <ele>159.6</ele>
        <time>2026-08-15T07:51:10Z</time>
      </trkpt>
      <trkpt lat="44.61469" lon="0.77203">
        <ele>159.8</ele>
        <time>2026-08-15T07:51:11Z</time>
      </trkpt>
      <trkpt lat="44.61466" lon="0.77204">
        <ele>160.2</ele>
        <time>2026-08-15T07:51:12Z</time>
      </trkpt>
      <trkpt lat="44.61463" lon="0.77205">
        <ele>160.6</ele>
        <time>2026-08-15T07:51:13Z</time>
      </trkpt>
      <trkpt lat="44.6146" lon="0.77205">
        <ele>160.8</ele>
        <time>2026-08-15T07:51:14Z</time>
      </trkpt>
      <trkpt lat="44.61457" lon="0.77205">
        <ele>161.2</ele>
        <time>2026-08-15T07:51:15Z</time>
      </trkpt>
      <trkpt lat="44.61454" lon="0.77205">
        <ele>161.4</ele>
        <time>2026-08-15T07:51:16Z</time>
      </trkpt>
      <trkpt lat="44.61451" lon="0.77204">
        <ele>161.6</ele>
        <time>2026-08-15T07:51:17Z</time>
      </trkpt>
      <trkpt lat="44.61448" lon="0.77204">
        <ele>161.6</ele>
        <time>2026-08-15T07:51:18Z</time>
      </trkpt>
      <trkpt lat="44.61445" lon="0.77203">
        <ele>161.8</ele>
        <time>2026-08-15T07:51:19Z</time>
      </trkpt>
      <trkpt lat="44.61442" lon="0.77203">
        <ele>162</ele>
        <time>2026-08-15T07:51:20Z</time>
      </trkpt>
      <trkpt lat="44.61439" lon="0.77203">
        <ele>162.2</ele>
        <time>2026-08-15T07:51:21Z</time>
      </trkpt>
      <trkpt lat="44.61436" lon="0.77203">
        <ele>162.4</ele>
        <time>2026-08-15T07:51:22Z</time>
      </trkpt>
      <trkpt lat="44.61434" lon="0.77203">
        <ele>162.6</ele>
        <time>2026-08-15T07:51:23Z</time>
      </trkpt>
      <trkpt lat="44.61431" lon="0.77203">
        <ele>162.8</ele>
        <time>2026-08-15T07:51:24Z</time>
      </trkpt>
      <trkpt lat="44.6143" lon="0.77203">
        <ele>163</ele>
        <time>2026-08-15T07:51:25Z</time>
      </trkpt>
      <trkpt lat="44.61428" lon="0.77203">
        <ele>163.2</ele>
        <time>2026-08-15T07:51:26Z</time>
      </trkpt>
      <trkpt lat="44.61426" lon="0.77202">
        <ele>163.6</ele>
        <time>2026-08-15T07:51:27Z</time>
      </trkpt>
      <trkpt lat="44.61424" lon="0.77202">
        <ele>163.8</ele>
        <time>2026-08-15T07:51:28Z</time>
      </trkpt>
      <trkpt lat="44.61421" lon="0.77202">
        <ele>164</ele>
        <time>2026-08-15T07:51:29Z</time>
      </trkpt>
      <trkpt lat="44.61419" lon="0.77201">
        <ele>164.2</ele>
        <time>2026-08-15T07:51:30Z</time>
      </trkpt>
      <trkpt lat="44.61416" lon="0.77201">
        <ele>164.4</ele>
        <time>2026-08-15T07:51:31Z</time>
      </trkpt>
      <trkpt lat="44.61414" lon="0.77201">
        <ele>164.6</ele>
        <time>2026-08-15T07:51:32Z</time>
      </trkpt>
      <trkpt lat="44.61411" lon="0.77201">
        <ele>164.6</ele>
        <time>2026-08-15T07:51:33Z</time>
      </trkpt>
      <trkpt lat="44.61409" lon="0.772">
        <ele>164.8</ele>
        <time>2026-08-15T07:51:34Z</time>
      </trkpt>
      <trkpt lat="44.61406" lon="0.772">
        <ele>165</ele>
        <time>2026-08-15T07:51:35Z</time>
      </trkpt>
      <trkpt lat="44.61404" lon="0.772">
        <ele>165.2</ele>
        <time>2026-08-15T07:51:36Z</time>
      </trkpt>
      <trkpt lat="44.61401" lon="0.77199">
        <ele>165.4</ele>
        <time>2026-08-15T07:51:37Z</time>
      </trkpt>
      <trkpt lat="44.61399" lon="0.77199">
        <ele>165.6</ele>
        <time>2026-08-15T07:51:38Z</time>
      </trkpt>
      <trkpt lat="44.61396" lon="0.77199">
        <ele>165.6</ele>
        <time>2026-08-15T07:51:39Z</time>
      </trkpt>
      <trkpt lat="44.61393" lon="0.77199">
        <ele>165.8</ele>
        <time>2026-08-15T07:51:40Z</time>
      </trkpt>
      <trkpt lat="44.61391" lon="0.77198">
        <ele>166.2</ele>
        <time>2026-08-15T07:51:41Z</time>
      </trkpt>
      <trkpt lat="44.61388" lon="0.77198">
        <ele>166.2</ele>
        <time>2026-08-15T07:51:42Z</time>
      </trkpt>
      <trkpt lat="44.61386" lon="0.77198">
        <ele>166.4</ele>
        <time>2026-08-15T07:51:43Z</time>
      </trkpt>
      <trkpt lat="44.61384" lon="0.77197">
        <ele>166.6</ele>
        <time>2026-08-15T07:51:44Z</time>
      </trkpt>
      <trkpt lat="44.61381" lon="0.77197">
        <ele>166.6</ele>
        <time>2026-08-15T07:51:45Z</time>
      </trkpt>
      <trkpt lat="44.61379" lon="0.77197">
        <ele>166.8</ele>
        <time>2026-08-15T07:51:46Z</time>
      </trkpt>
      <trkpt lat="44.61376" lon="0.77197">
        <ele>167.2</ele>
        <time>2026-08-15T07:51:47Z</time>
      </trkpt>
      <trkpt lat="44.61374" lon="0.77197">
        <ele>167.4</ele>
        <time>2026-08-15T07:51:48Z</time>
      </trkpt>
      <trkpt lat="44.61371" lon="0.77196">
        <ele>167.6</ele>
        <time>2026-08-15T07:51:49Z</time>
      </trkpt>
      <trkpt lat="44.61369" lon="0.77196">
        <ele>167.6</ele>
        <time>2026-08-15T07:51:50Z</time>
      </trkpt>
      <trkpt lat="44.61366" lon="0.77196">
        <ele>167.8</ele>
        <time>2026-08-15T07:51:51Z</time>
      </trkpt>
      <trkpt lat="44.61364" lon="0.77196">
        <ele>168.2</ele>
        <time>2026-08-15T07:51:52Z</time>
      </trkpt>
      <trkpt lat="44.61361" lon="0.77196">
        <ele>168.4</ele>
        <time>2026-08-15T07:51:53Z</time>
      </trkpt>
      <trkpt lat="44.61359" lon="0.77195">
        <ele>168.6</ele>
        <time>2026-08-15T07:51:54Z</time>
      </trkpt>
      <trkpt lat="44.61356" lon="0.77195">
        <ele>168.6</ele>
        <time>2026-08-15T07:51:55Z</time>
      </trkpt>
      <trkpt lat="44.61354" lon="0.77195">
        <ele>168.8</ele>
        <time>2026-08-15T07:51:56Z</time>
      </trkpt>
      <trkpt lat="44.61351" lon="0.77194">
        <ele>169.2</ele>
        <time>2026-08-15T07:51:57Z</time>
      </trkpt>
      <trkpt lat="44.61349" lon="0.77194">
        <ele>169.4</ele>
        <time>2026-08-15T07:51:58Z</time>
      </trkpt>
      <trkpt lat="44.61346" lon="0.77193">
        <ele>169.6</ele>
        <time>2026-08-15T07:51:59Z</time>
      </trkpt>
      <trkpt lat="44.61343" lon="0.77193">
        <ele>169.8</ele>
        <time>2026-08-15T07:52:00Z</time>
      </trkpt>
      <trkpt lat="44.61341" lon="0.77192">
        <ele>169.8</ele>
        <time>2026-08-15T07:52:01Z</time>
      </trkpt>
      <trkpt lat="44.61338" lon="0.77192">
        <ele>170.2</ele>
        <time>2026-08-15T07:52:02Z</time>
      </trkpt>
      <trkpt lat="44.61336" lon="0.77191">
        <ele>170.4</ele>
        <time>2026-08-15T07:52:03Z</time>
      </trkpt>
      <trkpt lat="44.61333" lon="0.7719">
        <ele>170.6</ele>
        <time>2026-08-15T07:52:04Z</time>
      </trkpt>
      <trkpt lat="44.6133" lon="0.77189">
        <ele>170.8</ele>
        <time>2026-08-15T07:52:05Z</time>
      </trkpt>
      <trkpt lat="44.61326" lon="0.77188">
        <ele>171</ele>
        <time>2026-08-15T07:52:06Z</time>
      </trkpt>
      <trkpt lat="44.61324" lon="0.77188">
        <ele>171.2</ele>
        <time>2026-08-15T07:52:07Z</time>
      </trkpt>
      <trkpt lat="44.61322" lon="0.77187">
        <ele>171.2</ele>
        <time>2026-08-15T07:52:08Z</time>
      </trkpt>
      <trkpt lat="44.6132" lon="0.77186">
        <ele>171.4</ele>
        <time>2026-08-15T07:52:09Z</time>
      </trkpt>
      <trkpt lat="44.61317" lon="0.77185">
        <ele>171.6</ele>
        <time>2026-08-15T07:52:10Z</time>
      </trkpt>
      <trkpt lat="44.61315" lon="0.77184">
        <ele>171.6</ele>
        <time>2026-08-15T07:52:11Z</time>
      </trkpt>
      <trkpt lat="44.61312" lon="0.77183">
        <ele>171.8</ele>
        <time>2026-08-15T07:52:12Z</time>
      </trkpt>
      <trkpt lat="44.6131" lon="0.77182">
        <ele>172.2</ele>
        <time>2026-08-15T07:52:13Z</time>
      </trkpt>
      <trkpt lat="44.61307" lon="0.77181">
        <ele>172.4</ele>
        <time>2026-08-15T07:52:14Z</time>
      </trkpt>
      <trkpt lat="44.61305" lon="0.7718">
        <ele>172.6</ele>
        <time>2026-08-15T07:52:15Z</time>
      </trkpt>
      <trkpt lat="44.61302" lon="0.77179">
        <ele>172.8</ele>
        <time>2026-08-15T07:52:16Z</time>
      </trkpt>
      <trkpt lat="44.613" lon="0.77177">
        <ele>173.2</ele>
        <time>2026-08-15T07:52:17Z</time>
      </trkpt>
      <trkpt lat="44.61298" lon="0.77176">
        <ele>173.4</ele>
        <time>2026-08-15T07:52:18Z</time>
      </trkpt>
      <trkpt lat="44.61295" lon="0.77175">
        <ele>173.4</ele>
        <time>2026-08-15T07:52:19Z</time>
      </trkpt>
      <trkpt lat="44.61293" lon="0.77174">
        <ele>173.6</ele>
        <time>2026-08-15T07:52:20Z</time>
      </trkpt>
      <trkpt lat="44.61291" lon="0.77172">
        <ele>173.6</ele>
        <time>2026-08-15T07:52:21Z</time>
      </trkpt>
      <trkpt lat="44.61288" lon="0.77171">
        <ele>173.8</ele>
        <time>2026-08-15T07:52:22Z</time>
      </trkpt>
      <trkpt lat="44.61284" lon="0.77168">
        <ele>174</ele>
        <time>2026-08-15T07:52:23Z</time>
      </trkpt>
      <trkpt lat="44.61281" lon="0.77166">
        <ele>174.2</ele>
        <time>2026-08-15T07:52:24Z</time>
      </trkpt>
      <trkpt lat="44.61278" lon="0.77164">
        <ele>174.4</ele>
        <time>2026-08-15T07:52:25Z</time>
      </trkpt>
      <trkpt lat="44.61275" lon="0.77162">
        <ele>174.6</ele>
        <time>2026-08-15T07:52:26Z</time>
      </trkpt>
      <trkpt lat="44.61273" lon="0.7716">
        <ele>174.8</ele>
        <time>2026-08-15T07:52:27Z</time>
      </trkpt>
      <trkpt lat="44.6127" lon="0.77159">
        <ele>175</ele>
        <time>2026-08-15T07:52:28Z</time>
      </trkpt>
      <trkpt lat="44.61268" lon="0.77157">
        <ele>175.2</ele>
        <time>2026-08-15T07:52:29Z</time>
      </trkpt>
      <trkpt lat="44.61266" lon="0.77155">
        <ele>175.4</ele>
        <time>2026-08-15T07:52:30Z</time>
      </trkpt>
      <trkpt lat="44.61263" lon="0.77153">
        <ele>175.6</ele>
        <time>2026-08-15T07:52:31Z</time>
      </trkpt>
      <trkpt lat="44.61261" lon="0.77151">
        <ele>175.6</ele>
        <time>2026-08-15T07:52:32Z</time>
      </trkpt>
      <trkpt lat="44.61258" lon="0.77149">
        <ele>175.8</ele>
        <time>2026-08-15T07:52:33Z</time>
      </trkpt>
      <trkpt lat="44.61256" lon="0.77146">
        <ele>175.8</ele>
        <time>2026-08-15T07:52:34Z</time>
      </trkpt>
      <trkpt lat="44.61253" lon="0.77144">
        <ele>176.2</ele>
        <time>2026-08-15T07:52:35Z</time>
      </trkpt>
      <trkpt lat="44.6125" lon="0.77141">
        <ele>176.4</ele>
        <time>2026-08-15T07:52:36Z</time>
      </trkpt>
      <trkpt lat="44.61248" lon="0.77138">
        <ele>176.4</ele>
        <time>2026-08-15T07:52:37Z</time>
      </trkpt>
      <trkpt lat="44.61245" lon="0.77136">
        <ele>176.6</ele>
        <time>2026-08-15T07:52:38Z</time>
      </trkpt>
      <trkpt lat="44.61243" lon="0.77133">
        <ele>176.6</ele>
        <time>2026-08-15T07:52:39Z</time>
      </trkpt>
      <trkpt lat="44.6124" lon="0.77131">
        <ele>176.6</ele>
        <time>2026-08-15T07:52:40Z</time>
      </trkpt>
      <trkpt lat="44.61237" lon="0.77128">
        <ele>176.8</ele>
        <time>2026-08-15T07:52:41Z</time>
      </trkpt>
      <trkpt lat="44.61235" lon="0.77126">
        <ele>176.8</ele>
        <time>2026-08-15T07:52:42Z</time>
      </trkpt>
      <trkpt lat="44.61232" lon="0.77124">
        <ele>176.8</ele>
        <time>2026-08-15T07:52:43Z</time>
      </trkpt>
      <trkpt lat="44.61229" lon="0.77121">
        <ele>176.8</ele>
        <time>2026-08-15T07:52:44Z</time>
      </trkpt>
      <trkpt lat="44.61227" lon="0.77119">
        <ele>176.8</ele>
        <time>2026-08-15T07:52:45Z</time>
      </trkpt>
      <trkpt lat="44.61224" lon="0.77116">
        <ele>177</ele>
        <time>2026-08-15T07:52:46Z</time>
      </trkpt>
      <trkpt lat="44.61221" lon="0.77113">
        <ele>177</ele>
        <time>2026-08-15T07:52:47Z</time>
      </trkpt>
      <trkpt lat="44.61219" lon="0.77111">
        <ele>177</ele>
        <time>2026-08-15T07:52:48Z</time>
      </trkpt>
      <trkpt lat="44.61216" lon="0.77108">
        <ele>177.2</ele>
        <time>2026-08-15T07:52:49Z</time>
      </trkpt>
      <trkpt lat="44.61214" lon="0.77105">
        <ele>177.2</ele>
        <time>2026-08-15T07:52:50Z</time>
      </trkpt>
      <trkpt lat="44.61211" lon="0.77102">
        <ele>177.2</ele>
        <time>2026-08-15T07:52:51Z</time>
      </trkpt>
      <trkpt lat="44.61208" lon="0.77099">
        <ele>177.4</ele>
        <time>2026-08-15T07:52:52Z</time>
      </trkpt>
      <trkpt lat="44.61205" lon="0.77096">
        <ele>177.2</ele>
        <time>2026-08-15T07:52:53Z</time>
      </trkpt>
      <trkpt lat="44.61202" lon="0.77093">
        <ele>177.2</ele>
        <time>2026-08-15T07:52:54Z</time>
      </trkpt>
      <trkpt lat="44.61199" lon="0.77089">
        <ele>177</ele>
        <time>2026-08-15T07:52:55Z</time>
      </trkpt>
      <trkpt lat="44.61195" lon="0.77086">
        <ele>176.8</ele>
        <time>2026-08-15T07:52:56Z</time>
      </trkpt>
      <trkpt lat="44.61192" lon="0.77083">
        <ele>176.8</ele>
        <time>2026-08-15T07:52:57Z</time>
      </trkpt>
      <trkpt lat="44.61188" lon="0.77079">
        <ele>176.6</ele>
        <time>2026-08-15T07:52:58Z</time>
      </trkpt>
      <trkpt lat="44.61185" lon="0.77076">
        <ele>176.6</ele>
        <time>2026-08-15T07:52:59Z</time>
      </trkpt>
      <trkpt lat="44.61182" lon="0.77072">
        <ele>176.4</ele>
        <time>2026-08-15T07:53:00Z</time>
      </trkpt>
      <trkpt lat="44.61178" lon="0.77069">
        <ele>176.2</ele>
        <time>2026-08-15T07:53:01Z</time>
      </trkpt>
      <trkpt lat="44.61174" lon="0.77065">
        <ele>175.8</ele>
        <time>2026-08-15T07:53:02Z</time>
      </trkpt>
      <trkpt lat="44.61171" lon="0.77062">
        <ele>175.8</ele>
        <time>2026-08-15T07:53:03Z</time>
      </trkpt>
      <trkpt lat="44.61167" lon="0.77059">
        <ele>175.6</ele>
        <time>2026-08-15T07:53:04Z</time>
      </trkpt>
      <trkpt lat="44.61162" lon="0.77055">
        <ele>175.6</ele>
        <time>2026-08-15T07:53:05Z</time>
      </trkpt>
      <trkpt lat="44.61158" lon="0.77052">
        <ele>175.4</ele>
        <time>2026-08-15T07:53:06Z</time>
      </trkpt>
      <trkpt lat="44.61154" lon="0.77049">
        <ele>175</ele>
        <time>2026-08-15T07:53:07Z</time>
      </trkpt>
      <trkpt lat="44.61149" lon="0.77046">
        <ele>174.8</ele>
        <time>2026-08-15T07:53:08Z</time>
      </trkpt>
      <trkpt lat="44.61144" lon="0.77043">
        <ele>174.6</ele>
        <time>2026-08-15T07:53:09Z</time>
      </trkpt>
      <trkpt lat="44.61139" lon="0.7704">
        <ele>174.2</ele>
        <time>2026-08-15T07:53:10Z</time>
      </trkpt>
      <trkpt lat="44.61132" lon="0.77036">
        <ele>174</ele>
        <time>2026-08-15T07:53:11Z</time>
      </trkpt>
      <trkpt lat="44.61127" lon="0.77033">
        <ele>173.8</ele>
        <time>2026-08-15T07:53:12Z</time>
      </trkpt>
      <trkpt lat="44.61122" lon="0.7703">
        <ele>173.8</ele>
        <time>2026-08-15T07:53:13Z</time>
      </trkpt>
      <trkpt lat="44.61117" lon="0.77027">
        <ele>173.6</ele>
        <time>2026-08-15T07:53:14Z</time>
      </trkpt>
      <trkpt lat="44.61114" lon="0.77026">
        <ele>173.4</ele>
        <time>2026-08-15T07:53:15Z</time>
      </trkpt>
      <trkpt lat="44.6111" lon="0.77024">
        <ele>173</ele>
        <time>2026-08-15T07:53:16Z</time>
      </trkpt>
      <trkpt lat="44.61105" lon="0.77023">
        <ele>172.8</ele>
        <time>2026-08-15T07:53:17Z</time>
      </trkpt>
      <trkpt lat="44.61101" lon="0.77023">
        <ele>172.6</ele>
        <time>2026-08-15T07:53:18Z</time>
      </trkpt>
      <trkpt lat="44.61097" lon="0.77025">
        <ele>172.4</ele>
        <time>2026-08-15T07:53:19Z</time>
      </trkpt>
      <trkpt lat="44.61094" lon="0.77027">
        <ele>172.2</ele>
        <time>2026-08-15T07:53:20Z</time>
      </trkpt>
      <trkpt lat="44.61091" lon="0.7703">
        <ele>172.2</ele>
        <time>2026-08-15T07:53:21Z</time>
      </trkpt>
      <trkpt lat="44.61088" lon="0.77034">
        <ele>172</ele>
        <time>2026-08-15T07:53:22Z</time>
      </trkpt>
      <trkpt lat="44.61085" lon="0.77037">
        <ele>171.8</ele>
        <time>2026-08-15T07:53:23Z</time>
      </trkpt>
      <trkpt lat="44.61083" lon="0.77041">
        <ele>171.8</ele>
        <time>2026-08-15T07:53:24Z</time>
      </trkpt>
      <trkpt lat="44.6108" lon="0.77045">
        <ele>171.8</ele>
        <time>2026-08-15T07:53:25Z</time>
      </trkpt>
      <trkpt lat="44.61077" lon="0.77049">
        <ele>171.8</ele>
        <time>2026-08-15T07:53:26Z</time>
      </trkpt>
      <trkpt lat="44.61074" lon="0.77054">
        <ele>171.8</ele>
        <time>2026-08-15T07:53:27Z</time>
      </trkpt>
      <trkpt lat="44.61071" lon="0.77058">
        <ele>171.8</ele>
        <time>2026-08-15T07:53:28Z</time>
      </trkpt>
      <trkpt lat="44.61069" lon="0.77063">
        <ele>171.8</ele>
        <time>2026-08-15T07:53:29Z</time>
      </trkpt>
      <trkpt lat="44.61066" lon="0.77068">
        <ele>171.8</ele>
        <time>2026-08-15T07:53:30Z</time>
      </trkpt>
      <trkpt lat="44.61064" lon="0.77073">
        <ele>171.8</ele>
        <time>2026-08-15T07:53:31Z</time>
      </trkpt>
      <trkpt lat="44.61061" lon="0.77078">
        <ele>171.8</ele>
        <time>2026-08-15T07:53:32Z</time>
      </trkpt>
      <trkpt lat="44.61059" lon="0.77083">
        <ele>171.8</ele>
        <time>2026-08-15T07:53:33Z</time>
      </trkpt>
      <trkpt lat="44.61056" lon="0.77088">
        <ele>171.8</ele>
        <time>2026-08-15T07:53:34Z</time>
      </trkpt>
      <trkpt lat="44.61054" lon="0.77093">
        <ele>171.8</ele>
        <time>2026-08-15T07:53:35Z</time>
      </trkpt>
      <trkpt lat="44.61052" lon="0.77098">
        <ele>171.8</ele>
        <time>2026-08-15T07:53:36Z</time>
      </trkpt>
      <trkpt lat="44.61049" lon="0.77103">
        <ele>172</ele>
        <time>2026-08-15T07:53:37Z</time>
      </trkpt>
      <trkpt lat="44.61047" lon="0.77108">
        <ele>172.2</ele>
        <time>2026-08-15T07:53:38Z</time>
      </trkpt>
      <trkpt lat="44.61045" lon="0.77113">
        <ele>172.2</ele>
        <time>2026-08-15T07:53:39Z</time>
      </trkpt>
      <trkpt lat="44.61044" lon="0.77118">
        <ele>172.4</ele>
        <time>2026-08-15T07:53:40Z</time>
      </trkpt>
      <trkpt lat="44.61042" lon="0.77122">
        <ele>172.4</ele>
        <time>2026-08-15T07:53:41Z</time>
      </trkpt>
      <trkpt lat="44.61041" lon="0.77127">
        <ele>172.6</ele>
        <time>2026-08-15T07:53:42Z</time>
      </trkpt>
      <trkpt lat="44.6104" lon="0.77133">
        <ele>172.6</ele>
        <time>2026-08-15T07:53:43Z</time>
      </trkpt>
      <trkpt lat="44.61038" lon="0.77139">
        <ele>172.6</ele>
        <time>2026-08-15T07:53:44Z</time>
      </trkpt>
      <trkpt lat="44.61037" lon="0.77144">
        <ele>172.6</ele>
        <time>2026-08-15T07:53:45Z</time>
      </trkpt>
      <trkpt lat="44.61035" lon="0.7715">
        <ele>172.8</ele>
        <time>2026-08-15T07:53:46Z</time>
      </trkpt>
      <trkpt lat="44.61034" lon="0.77156">
        <ele>172.8</ele>
        <time>2026-08-15T07:53:47Z</time>
      </trkpt>
      <trkpt lat="44.61032" lon="0.77162">
        <ele>172.6</ele>
        <time>2026-08-15T07:53:48Z</time>
      </trkpt>
      <trkpt lat="44.6103" lon="0.77168">
        <ele>172.6</ele>
        <time>2026-08-15T07:53:49Z</time>
      </trkpt>
      <trkpt lat="44.61028" lon="0.77175">
        <ele>172.6</ele>
        <time>2026-08-15T07:53:50Z</time>
      </trkpt>
      <trkpt lat="44.61027" lon="0.77181">
        <ele>172.6</ele>
        <time>2026-08-15T07:53:51Z</time>
      </trkpt>
      <trkpt lat="44.61025" lon="0.77187">
        <ele>172.6</ele>
        <time>2026-08-15T07:53:52Z</time>
      </trkpt>
      <trkpt lat="44.61024" lon="0.77193">
        <ele>172.6</ele>
        <time>2026-08-15T07:53:53Z</time>
      </trkpt>
      <trkpt lat="44.61023" lon="0.77199">
        <ele>172.6</ele>
        <time>2026-08-15T07:53:54Z</time>
      </trkpt>
      <trkpt lat="44.61022" lon="0.77205">
        <ele>172.6</ele>
        <time>2026-08-15T07:53:55Z</time>
      </trkpt>
      <trkpt lat="44.61021" lon="0.77211">
        <ele>172.6</ele>
        <time>2026-08-15T07:53:56Z</time>
      </trkpt>
      <trkpt lat="44.61021" lon="0.77217">
        <ele>172.6</ele>
        <time>2026-08-15T07:53:57Z</time>
      </trkpt>
      <trkpt lat="44.6102" lon="0.77223">
        <ele>172.6</ele>
        <time>2026-08-15T07:53:58Z</time>
      </trkpt>
      <trkpt lat="44.61019" lon="0.77229">
        <ele>172.6</ele>
        <time>2026-08-15T07:53:59Z</time>
      </trkpt>
      <trkpt lat="44.61019" lon="0.77235">
        <ele>172.6</ele>
        <time>2026-08-15T07:54:00Z</time>
      </trkpt>
      <trkpt lat="44.61018" lon="0.77241">
        <ele>172.6</ele>
        <time>2026-08-15T07:54:01Z</time>
      </trkpt>
      <trkpt lat="44.61018" lon="0.77247">
        <ele>172.8</ele>
        <time>2026-08-15T07:54:02Z</time>
      </trkpt>
      <trkpt lat="44.61017" lon="0.77252">
        <ele>172.8</ele>
        <time>2026-08-15T07:54:03Z</time>
      </trkpt>
      <trkpt lat="44.61017" lon="0.77258">
        <ele>172.8</ele>
        <time>2026-08-15T07:54:04Z</time>
      </trkpt>
      <trkpt lat="44.61017" lon="0.77263">
        <ele>173.2</ele>
        <time>2026-08-15T07:54:05Z</time>
      </trkpt>
      <trkpt lat="44.61018" lon="0.77269">
        <ele>173.2</ele>
        <time>2026-08-15T07:54:06Z</time>
      </trkpt>
      <trkpt lat="44.61018" lon="0.77274">
        <ele>173.6</ele>
        <time>2026-08-15T07:54:07Z</time>
      </trkpt>
      <trkpt lat="44.61018" lon="0.77279">
        <ele>173.6</ele>
        <time>2026-08-15T07:54:08Z</time>
      </trkpt>
      <trkpt lat="44.61018" lon="0.77284">
        <ele>173.8</ele>
        <time>2026-08-15T07:54:09Z</time>
      </trkpt>
      <trkpt lat="44.61017" lon="0.77289">
        <ele>174.2</ele>
        <time>2026-08-15T07:54:10Z</time>
      </trkpt>
      <trkpt lat="44.61017" lon="0.77294">
        <ele>174.4</ele>
        <time>2026-08-15T07:54:11Z</time>
      </trkpt>
      <trkpt lat="44.61017" lon="0.77299">
        <ele>174.4</ele>
        <time>2026-08-15T07:54:12Z</time>
      </trkpt>
      <trkpt lat="44.61017" lon="0.77304">
        <ele>174.6</ele>
        <time>2026-08-15T07:54:13Z</time>
      </trkpt>
      <trkpt lat="44.61017" lon="0.77309">
        <ele>174.6</ele>
        <time>2026-08-15T07:54:14Z</time>
      </trkpt>
      <trkpt lat="44.61017" lon="0.77313">
        <ele>174.6</ele>
        <time>2026-08-15T07:54:15Z</time>
      </trkpt>
      <trkpt lat="44.61018" lon="0.77318">
        <ele>174.6</ele>
        <time>2026-08-15T07:54:16Z</time>
      </trkpt>
      <trkpt lat="44.61018" lon="0.77323">
        <ele>174.8</ele>
        <time>2026-08-15T07:54:17Z</time>
      </trkpt>
      <trkpt lat="44.61018" lon="0.77327">
        <ele>175.2</ele>
        <time>2026-08-15T07:54:18Z</time>
      </trkpt>
      <trkpt lat="44.61019" lon="0.77332">
        <ele>175.6</ele>
        <time>2026-08-15T07:54:19Z</time>
      </trkpt>
      <trkpt lat="44.61019" lon="0.77336">
        <ele>175.8</ele>
        <time>2026-08-15T07:54:20Z</time>
      </trkpt>
      <trkpt lat="44.61019" lon="0.77341">
        <ele>176</ele>
        <time>2026-08-15T07:54:21Z</time>
      </trkpt>
      <trkpt lat="44.6102" lon="0.77345">
        <ele>176.4</ele>
        <time>2026-08-15T07:54:22Z</time>
      </trkpt>
      <trkpt lat="44.6102" lon="0.7735">
        <ele>176.6</ele>
        <time>2026-08-15T07:54:23Z</time>
      </trkpt>
      <trkpt lat="44.61021" lon="0.77354">
        <ele>176.6</ele>
        <time>2026-08-15T07:54:24Z</time>
      </trkpt>
      <trkpt lat="44.61021" lon="0.77358">
        <ele>176.8</ele>
        <time>2026-08-15T07:54:25Z</time>
      </trkpt>
      <trkpt lat="44.61022" lon="0.77363">
        <ele>177.2</ele>
        <time>2026-08-15T07:54:26Z</time>
      </trkpt>
      <trkpt lat="44.61023" lon="0.77367">
        <ele>177.2</ele>
        <time>2026-08-15T07:54:27Z</time>
      </trkpt>
      <trkpt lat="44.61023" lon="0.77372">
        <ele>177.4</ele>
        <time>2026-08-15T07:54:28Z</time>
      </trkpt>
      <trkpt lat="44.61024" lon="0.77376">
        <ele>177.6</ele>
        <time>2026-08-15T07:54:29Z</time>
      </trkpt>
      <trkpt lat="44.61024" lon="0.77381">
        <ele>177.8</ele>
        <time>2026-08-15T07:54:30Z</time>
      </trkpt>
      <trkpt lat="44.61025" lon="0.77385">
        <ele>178</ele>
        <time>2026-08-15T07:54:31Z</time>
      </trkpt>
      <trkpt lat="44.61025" lon="0.77389">
        <ele>178.4</ele>
        <time>2026-08-15T07:54:32Z</time>
      </trkpt>
      <trkpt lat="44.61025" lon="0.77393">
        <ele>178.6</ele>
        <time>2026-08-15T07:54:33Z</time>
      </trkpt>
      <trkpt lat="44.61025" lon="0.77398">
        <ele>178.8</ele>
        <time>2026-08-15T07:54:34Z</time>
      </trkpt>
      <trkpt lat="44.61025" lon="0.77402">
        <ele>179.2</ele>
        <time>2026-08-15T07:54:35Z</time>
      </trkpt>
      <trkpt lat="44.61025" lon="0.77406">
        <ele>179.4</ele>
        <time>2026-08-15T07:54:36Z</time>
      </trkpt>
      <trkpt lat="44.61025" lon="0.7741">
        <ele>179.6</ele>
        <time>2026-08-15T07:54:37Z</time>
      </trkpt>
      <trkpt lat="44.61025" lon="0.77414">
        <ele>180</ele>
        <time>2026-08-15T07:54:38Z</time>
      </trkpt>
      <trkpt lat="44.61024" lon="0.77418">
        <ele>180.2</ele>
        <time>2026-08-15T07:54:39Z</time>
      </trkpt>
      <trkpt lat="44.61023" lon="0.77422">
        <ele>180.4</ele>
        <time>2026-08-15T07:54:40Z</time>
      </trkpt>
      <trkpt lat="44.61023" lon="0.77426">
        <ele>180.6</ele>
        <time>2026-08-15T07:54:41Z</time>
      </trkpt>
      <trkpt lat="44.61022" lon="0.7743">
        <ele>180.6</ele>
        <time>2026-08-15T07:54:42Z</time>
      </trkpt>
      <trkpt lat="44.6102" lon="0.77434">
        <ele>180.8</ele>
        <time>2026-08-15T07:54:43Z</time>
      </trkpt>
      <trkpt lat="44.61019" lon="0.77438">
        <ele>181.2</ele>
        <time>2026-08-15T07:54:44Z</time>
      </trkpt>
      <trkpt lat="44.61018" lon="0.77442">
        <ele>181.4</ele>
        <time>2026-08-15T07:54:45Z</time>
      </trkpt>
      <trkpt lat="44.61016" lon="0.77446">
        <ele>181.4</ele>
        <time>2026-08-15T07:54:46Z</time>
      </trkpt>
      <trkpt lat="44.61015" lon="0.77449">
        <ele>181.6</ele>
        <time>2026-08-15T07:54:47Z</time>
      </trkpt>
      <trkpt lat="44.61013" lon="0.77452">
        <ele>181.8</ele>
        <time>2026-08-15T07:54:48Z</time>
      </trkpt>
      <trkpt lat="44.61012" lon="0.77456">
        <ele>181.8</ele>
        <time>2026-08-15T07:54:49Z</time>
      </trkpt>
      <trkpt lat="44.6101" lon="0.7746">
        <ele>182</ele>
        <time>2026-08-15T07:54:50Z</time>
      </trkpt>
      <trkpt lat="44.61009" lon="0.77463">
        <ele>182</ele>
        <time>2026-08-15T07:54:51Z</time>
      </trkpt>
      <trkpt lat="44.61007" lon="0.77467">
        <ele>182.2</ele>
        <time>2026-08-15T07:54:52Z</time>
      </trkpt>
      <trkpt lat="44.61005" lon="0.77471">
        <ele>182.2</ele>
        <time>2026-08-15T07:54:53Z</time>
      </trkpt>
      <trkpt lat="44.61003" lon="0.77476">
        <ele>182.2</ele>
        <time>2026-08-15T07:54:54Z</time>
      </trkpt>
      <trkpt lat="44.61" lon="0.7748">
        <ele>182</ele>
        <time>2026-08-15T07:54:55Z</time>
      </trkpt>
      <trkpt lat="44.60997" lon="0.77485">
        <ele>182</ele>
        <time>2026-08-15T07:54:56Z</time>
      </trkpt>
      <trkpt lat="44.60995" lon="0.7749">
        <ele>181.8</ele>
        <time>2026-08-15T07:54:57Z</time>
      </trkpt>
      <trkpt lat="44.60992" lon="0.77495">
        <ele>181.8</ele>
        <time>2026-08-15T07:54:58Z</time>
      </trkpt>
      <trkpt lat="44.60989" lon="0.775">
        <ele>181.6</ele>
        <time>2026-08-15T07:54:59Z</time>
      </trkpt>
      <trkpt lat="44.60986" lon="0.77505">
        <ele>181.6</ele>
        <time>2026-08-15T07:55:00Z</time>
      </trkpt>
      <trkpt lat="44.60983" lon="0.7751">
        <ele>181.6</ele>
        <time>2026-08-15T07:55:01Z</time>
      </trkpt>
      <trkpt lat="44.6098" lon="0.77515">
        <ele>181.4</ele>
        <time>2026-08-15T07:55:02Z</time>
      </trkpt>
      <trkpt lat="44.60977" lon="0.77519">
        <ele>181.2</ele>
        <time>2026-08-15T07:55:03Z</time>
      </trkpt>
      <trkpt lat="44.60973" lon="0.77524">
        <ele>181</ele>
        <time>2026-08-15T07:55:04Z</time>
      </trkpt>
      <trkpt lat="44.60969" lon="0.77527">
        <ele>180.8</ele>
        <time>2026-08-15T07:55:05Z</time>
      </trkpt>
      <trkpt lat="44.60965" lon="0.7753">
        <ele>180.6</ele>
        <time>2026-08-15T07:55:06Z</time>
      </trkpt>
      <trkpt lat="44.60961" lon="0.77531">
        <ele>180.6</ele>
        <time>2026-08-15T07:55:07Z</time>
      </trkpt>
      <trkpt lat="44.60956" lon="0.77532">
        <ele>180.6</ele>
        <time>2026-08-15T07:55:08Z</time>
      </trkpt>
      <trkpt lat="44.60952" lon="0.77534">
        <ele>180.4</ele>
        <time>2026-08-15T07:55:09Z</time>
      </trkpt>
      <trkpt lat="44.60947" lon="0.77535">
        <ele>180.4</ele>
        <time>2026-08-15T07:55:10Z</time>
      </trkpt>
      <trkpt lat="44.60942" lon="0.77536">
        <ele>180.2</ele>
        <time>2026-08-15T07:55:11Z</time>
      </trkpt>
      <trkpt lat="44.60937" lon="0.77537">
        <ele>180</ele>
        <time>2026-08-15T07:55:12Z</time>
      </trkpt>
      <trkpt lat="44.60932" lon="0.77538">
        <ele>179.8</ele>
        <time>2026-08-15T07:55:13Z</time>
      </trkpt>
      <trkpt lat="44.60927" lon="0.7754">
        <ele>179.8</ele>
        <time>2026-08-15T07:55:14Z</time>
      </trkpt>
      <trkpt lat="44.6092" lon="0.77542">
        <ele>179.6</ele>
        <time>2026-08-15T07:55:15Z</time>
      </trkpt>
      <trkpt lat="44.60914" lon="0.77543">
        <ele>179.2</ele>
        <time>2026-08-15T07:55:16Z</time>
      </trkpt>
      <trkpt lat="44.60908" lon="0.77543">
        <ele>178.6</ele>
        <time>2026-08-15T07:55:17Z</time>
      </trkpt>
      <trkpt lat="44.60902" lon="0.77542">
        <ele>178.6</ele>
        <time>2026-08-15T07:55:18Z</time>
      </trkpt>
      <trkpt lat="44.60896" lon="0.77541">
        <ele>178.4</ele>
        <time>2026-08-15T07:55:19Z</time>
      </trkpt>
      <trkpt lat="44.6089" lon="0.77541">
        <ele>178.2</ele>
        <time>2026-08-15T07:55:20Z</time>
      </trkpt>
      <trkpt lat="44.60884" lon="0.77541">
        <ele>178.2</ele>
        <time>2026-08-15T07:55:21Z</time>
      </trkpt>
      <trkpt lat="44.60879" lon="0.77543">
        <ele>178.2</ele>
        <time>2026-08-15T07:55:22Z</time>
      </trkpt>
      <trkpt lat="44.60874" lon="0.77546">
        <ele>178</ele>
        <time>2026-08-15T07:55:23Z</time>
      </trkpt>
      <trkpt lat="44.60869" lon="0.77548">
        <ele>178</ele>
        <time>2026-08-15T07:55:24Z</time>
      </trkpt>
      <trkpt lat="44.60865" lon="0.7755">
        <ele>177.8</ele>
        <time>2026-08-15T07:55:25Z</time>
      </trkpt>
      <trkpt lat="44.60862" lon="0.77552">
        <ele>177.8</ele>
        <time>2026-08-15T07:55:26Z</time>
      </trkpt>
      <trkpt lat="44.60858" lon="0.77555">
        <ele>177.8</ele>
        <time>2026-08-15T07:55:27Z</time>
      </trkpt>
      <trkpt lat="44.60854" lon="0.77558">
        <ele>177.8</ele>
        <time>2026-08-15T07:55:28Z</time>
      </trkpt>
      <trkpt lat="44.60849" lon="0.77561">
        <ele>177.8</ele>
        <time>2026-08-15T07:55:29Z</time>
      </trkpt>
      <trkpt lat="44.60845" lon="0.77563">
        <ele>178</ele>
        <time>2026-08-15T07:55:30Z</time>
      </trkpt>
      <trkpt lat="44.60841" lon="0.77566">
        <ele>178.2</ele>
        <time>2026-08-15T07:55:31Z</time>
      </trkpt>
      <trkpt lat="44.60837" lon="0.77568">
        <ele>178.2</ele>
        <time>2026-08-15T07:55:32Z</time>
      </trkpt>
      <trkpt lat="44.60833" lon="0.77571">
        <ele>178.4</ele>
        <time>2026-08-15T07:55:33Z</time>
      </trkpt>
      <trkpt lat="44.60829" lon="0.77573">
        <ele>178.4</ele>
        <time>2026-08-15T07:55:34Z</time>
      </trkpt>
      <trkpt lat="44.60825" lon="0.77575">
        <ele>178.6</ele>
        <time>2026-08-15T07:55:35Z</time>
      </trkpt>
      <trkpt lat="44.60821" lon="0.77578">
        <ele>178.6</ele>
        <time>2026-08-15T07:55:36Z</time>
      </trkpt>
      <trkpt lat="44.60818" lon="0.7758">
        <ele>178.6</ele>
        <time>2026-08-15T07:55:37Z</time>
      </trkpt>
      <trkpt lat="44.60814" lon="0.77583">
        <ele>178.8</ele>
        <time>2026-08-15T07:55:38Z</time>
      </trkpt>
      <trkpt lat="44.60811" lon="0.77586">
        <ele>179</ele>
        <time>2026-08-15T07:55:39Z</time>
      </trkpt>
      <trkpt lat="44.60808" lon="0.77588">
        <ele>179</ele>
        <time>2026-08-15T07:55:40Z</time>
      </trkpt>
      <trkpt lat="44.60804" lon="0.7759">
        <ele>179.2</ele>
        <time>2026-08-15T07:55:41Z</time>
      </trkpt>
      <trkpt lat="44.60801" lon="0.77593">
        <ele>179.2</ele>
        <time>2026-08-15T07:55:42Z</time>
      </trkpt>
      <trkpt lat="44.60797" lon="0.77595">
        <ele>179.2</ele>
        <time>2026-08-15T07:55:43Z</time>
      </trkpt>
      <trkpt lat="44.60793" lon="0.77598">
        <ele>179.4</ele>
        <time>2026-08-15T07:55:44Z</time>
      </trkpt>
      <trkpt lat="44.60789" lon="0.776">
        <ele>179.4</ele>
        <time>2026-08-15T07:55:45Z</time>
      </trkpt>
      <trkpt lat="44.60786" lon="0.77602">
        <ele>179.6</ele>
        <time>2026-08-15T07:55:46Z</time>
      </trkpt>
      <trkpt lat="44.60782" lon="0.77605">
        <ele>179.6</ele>
        <time>2026-08-15T07:55:47Z</time>
      </trkpt>
      <trkpt lat="44.60778" lon="0.77607">
        <ele>179.6</ele>
        <time>2026-08-15T07:55:48Z</time>
      </trkpt>
      <trkpt lat="44.60775" lon="0.7761">
        <ele>180</ele>
        <time>2026-08-15T07:55:49Z</time>
      </trkpt>
      <trkpt lat="44.60771" lon="0.77612">
        <ele>180.4</ele>
        <time>2026-08-15T07:55:50Z</time>
      </trkpt>
      <trkpt lat="44.60768" lon="0.77615">
        <ele>180.6</ele>
        <time>2026-08-15T07:55:51Z</time>
      </trkpt>
      <trkpt lat="44.60764" lon="0.77617">
        <ele>180.8</ele>
        <time>2026-08-15T07:55:52Z</time>
      </trkpt>
      <trkpt lat="44.60761" lon="0.7762">
        <ele>181.2</ele>
        <time>2026-08-15T07:55:53Z</time>
      </trkpt>
      <trkpt lat="44.60758" lon="0.77623">
        <ele>181.6</ele>
        <time>2026-08-15T07:55:54Z</time>
      </trkpt>
      <trkpt lat="44.60755" lon="0.77625">
        <ele>181.6</ele>
        <time>2026-08-15T07:55:55Z</time>
      </trkpt>
      <trkpt lat="44.60752" lon="0.77628">
        <ele>182</ele>
        <time>2026-08-15T07:55:56Z</time>
      </trkpt>
      <trkpt lat="44.60749" lon="0.7763">
        <ele>182.4</ele>
        <time>2026-08-15T07:55:57Z</time>
      </trkpt>
      <trkpt lat="44.60747" lon="0.77633">
        <ele>182.6</ele>
        <time>2026-08-15T07:55:58Z</time>
      </trkpt>
      <trkpt lat="44.60744" lon="0.77636">
        <ele>182.8</ele>
        <time>2026-08-15T07:55:59Z</time>
      </trkpt>
      <trkpt lat="44.60741" lon="0.77639">
        <ele>183</ele>
        <time>2026-08-15T07:56:00Z</time>
      </trkpt>
      <trkpt lat="44.60738" lon="0.77642">
        <ele>183.4</ele>
        <time>2026-08-15T07:56:01Z</time>
      </trkpt>
      <trkpt lat="44.60735" lon="0.77645">
        <ele>183.6</ele>
        <time>2026-08-15T07:56:02Z</time>
      </trkpt>
      <trkpt lat="44.60733" lon="0.77649">
        <ele>183.6</ele>
        <time>2026-08-15T07:56:03Z</time>
      </trkpt>
      <trkpt lat="44.6073" lon="0.77652">
        <ele>183.8</ele>
        <time>2026-08-15T07:56:04Z</time>
      </trkpt>
      <trkpt lat="44.60727" lon="0.77655">
        <ele>184.2</ele>
        <time>2026-08-15T07:56:05Z</time>
      </trkpt>
      <trkpt lat="44.60724" lon="0.77658">
        <ele>184.2</ele>
        <time>2026-08-15T07:56:06Z</time>
      </trkpt>
      <trkpt lat="44.60722" lon="0.77661">
        <ele>184.4</ele>
        <time>2026-08-15T07:56:07Z</time>
      </trkpt>
      <trkpt lat="44.60719" lon="0.77664">
        <ele>184.6</ele>
        <time>2026-08-15T07:56:08Z</time>
      </trkpt>
      <trkpt lat="44.60716" lon="0.77667">
        <ele>184.6</ele>
        <time>2026-08-15T07:56:09Z</time>
      </trkpt>
      <trkpt lat="44.60713" lon="0.77671">
        <ele>184.6</ele>
        <time>2026-08-15T07:56:10Z</time>
      </trkpt>
      <trkpt lat="44.60709" lon="0.77674">
        <ele>184.6</ele>
        <time>2026-08-15T07:56:11Z</time>
      </trkpt>
      <trkpt lat="44.60706" lon="0.77678">
        <ele>184.6</ele>
        <time>2026-08-15T07:56:12Z</time>
      </trkpt>
      <trkpt lat="44.60702" lon="0.77682">
        <ele>184.6</ele>
        <time>2026-08-15T07:56:13Z</time>
      </trkpt>
      <trkpt lat="44.60699" lon="0.77686">
        <ele>184.6</ele>
        <time>2026-08-15T07:56:14Z</time>
      </trkpt>
      <trkpt lat="44.60695" lon="0.77689">
        <ele>184.4</ele>
        <time>2026-08-15T07:56:15Z</time>
      </trkpt>
      <trkpt lat="44.60691" lon="0.77693">
        <ele>184.4</ele>
        <time>2026-08-15T07:56:16Z</time>
      </trkpt>
      <trkpt lat="44.60688" lon="0.77696">
        <ele>184.4</ele>
        <time>2026-08-15T07:56:17Z</time>
      </trkpt>
      <trkpt lat="44.60685" lon="0.777">
        <ele>184.2</ele>
        <time>2026-08-15T07:56:18Z</time>
      </trkpt>
      <trkpt lat="44.60682" lon="0.77702">
        <ele>184.2</ele>
        <time>2026-08-15T07:56:19Z</time>
      </trkpt>
      <trkpt lat="44.60681" lon="0.77704">
        <ele>184.2</ele>
        <time>2026-08-15T07:56:20Z</time>
      </trkpt>
      <trkpt lat="44.60681" lon="0.77704">
        <ele>184.2</ele>
        <time>2026-08-15T07:56:21Z</time>
      </trkpt>
      <trkpt lat="44.60681" lon="0.77704">
        <ele>184</ele>
        <time>2026-08-15T07:56:22Z</time>
      </trkpt>
      <trkpt lat="44.60681" lon="0.77704">
        <ele>184</ele>
        <time>2026-08-15T07:56:23Z</time>
      </trkpt>
      <trkpt lat="44.60679" lon="0.77706">
        <ele>184</ele>
        <time>2026-08-15T07:56:35Z</time>
      </trkpt>
      <trkpt lat="44.60678" lon="0.77708">
        <ele>183.8</ele>
        <time>2026-08-15T07:56:36Z</time>
      </trkpt>
      <trkpt lat="44.60677" lon="0.7771">
        <ele>183.8</ele>
        <time>2026-08-15T07:56:37Z</time>
      </trkpt>
      <trkpt lat="44.60675" lon="0.77713">
        <ele>183.8</ele>
        <time>2026-08-15T07:56:38Z</time>
      </trkpt>
      <trkpt lat="44.60673" lon="0.77716">
        <ele>184</ele>
        <time>2026-08-15T07:56:39Z</time>
      </trkpt>
      <trkpt lat="44.6067" lon="0.7772">
        <ele>184</ele>
        <time>2026-08-15T07:56:40Z</time>
      </trkpt>
      <trkpt lat="44.60667" lon="0.77726">
        <ele>184</ele>
        <time>2026-08-15T07:56:41Z</time>
      </trkpt>
      <trkpt lat="44.60664" lon="0.7773">
        <ele>184.2</ele>
        <time>2026-08-15T07:56:42Z</time>
      </trkpt>
      <trkpt lat="44.60661" lon="0.77734">
        <ele>184.2</ele>
        <time>2026-08-15T07:56:43Z</time>
      </trkpt>
      <trkpt lat="44.60658" lon="0.77738">
        <ele>184.2</ele>
        <time>2026-08-15T07:56:44Z</time>
      </trkpt>
      <trkpt lat="44.60656" lon="0.77742">
        <ele>184.2</ele>
        <time>2026-08-15T07:56:45Z</time>
      </trkpt>
      <trkpt lat="44.60653" lon="0.77746">
        <ele>184.4</ele>
        <time>2026-08-15T07:56:46Z</time>
      </trkpt>
      <trkpt lat="44.6065" lon="0.77751">
        <ele>184.4</ele>
        <time>2026-08-15T07:56:47Z</time>
      </trkpt>
      <trkpt lat="44.60647" lon="0.77755">
        <ele>184.4</ele>
        <time>2026-08-15T07:56:48Z</time>
      </trkpt>
      <trkpt lat="44.60644" lon="0.77759">
        <ele>184.6</ele>
        <time>2026-08-15T07:56:49Z</time>
      </trkpt>
      <trkpt lat="44.60642" lon="0.77763">
        <ele>184.6</ele>
        <time>2026-08-15T07:56:50Z</time>
      </trkpt>
      <trkpt lat="44.60639" lon="0.77768">
        <ele>184.6</ele>
        <time>2026-08-15T07:56:51Z</time>
      </trkpt>
      <trkpt lat="44.60636" lon="0.77772">
        <ele>184.8</ele>
        <time>2026-08-15T07:56:52Z</time>
      </trkpt>
      <trkpt lat="44.60634" lon="0.77776">
        <ele>185</ele>
        <time>2026-08-15T07:56:53Z</time>
      </trkpt>
      <trkpt lat="44.60631" lon="0.77779">
        <ele>185.2</ele>
        <time>2026-08-15T07:56:54Z</time>
      </trkpt>
      <trkpt lat="44.60629" lon="0.77783">
        <ele>185.2</ele>
        <time>2026-08-15T07:56:55Z</time>
      </trkpt>
      <trkpt lat="44.60626" lon="0.77787">
        <ele>185.4</ele>
        <time>2026-08-15T07:56:56Z</time>
      </trkpt>
      <trkpt lat="44.60624" lon="0.7779">
        <ele>185.6</ele>
        <time>2026-08-15T07:56:57Z</time>
      </trkpt>
      <trkpt lat="44.60621" lon="0.77793">
        <ele>185.6</ele>
        <time>2026-08-15T07:56:58Z</time>
      </trkpt>
      <trkpt lat="44.60619" lon="0.77796">
        <ele>186</ele>
        <time>2026-08-15T07:56:59Z</time>
      </trkpt>
      <trkpt lat="44.60616" lon="0.77799">
        <ele>186.2</ele>
        <time>2026-08-15T07:57:00Z</time>
      </trkpt>
      <trkpt lat="44.60613" lon="0.77802">
        <ele>186.6</ele>
        <time>2026-08-15T07:57:01Z</time>
      </trkpt>
      <trkpt lat="44.60611" lon="0.77805">
        <ele>186.6</ele>
        <time>2026-08-15T07:57:02Z</time>
      </trkpt>
      <trkpt lat="44.60608" lon="0.77807">
        <ele>186.8</ele>
        <time>2026-08-15T07:57:03Z</time>
      </trkpt>
      <trkpt lat="44.60604" lon="0.7781">
        <ele>187</ele>
        <time>2026-08-15T07:57:04Z</time>
      </trkpt>
      <trkpt lat="44.60601" lon="0.77811">
        <ele>187.2</ele>
        <time>2026-08-15T07:57:05Z</time>
      </trkpt>
      <trkpt lat="44.60598" lon="0.77813">
        <ele>187.2</ele>
        <time>2026-08-15T07:57:06Z</time>
      </trkpt>
      <trkpt lat="44.60594" lon="0.77814">
        <ele>187.2</ele>
        <time>2026-08-15T07:57:07Z</time>
      </trkpt>
      <trkpt lat="44.60591" lon="0.77814">
        <ele>187.4</ele>
        <time>2026-08-15T07:57:08Z</time>
      </trkpt>
      <trkpt lat="44.60587" lon="0.77814">
        <ele>187.6</ele>
        <time>2026-08-15T07:57:09Z</time>
      </trkpt>
      <trkpt lat="44.60583" lon="0.77814">
        <ele>187.6</ele>
        <time>2026-08-15T07:57:10Z</time>
      </trkpt>
      <trkpt lat="44.6058" lon="0.77813">
        <ele>187.6</ele>
        <time>2026-08-15T07:57:11Z</time>
      </trkpt>
      <trkpt lat="44.60576" lon="0.77812">
        <ele>187.8</ele>
        <time>2026-08-15T07:57:12Z</time>
      </trkpt>
      <trkpt lat="44.60573" lon="0.77811">
        <ele>187.8</ele>
        <time>2026-08-15T07:57:13Z</time>
      </trkpt>
      <trkpt lat="44.6057" lon="0.77809">
        <ele>187.8</ele>
        <time>2026-08-15T07:57:14Z</time>
      </trkpt>
      <trkpt lat="44.60566" lon="0.77807">
        <ele>187.8</ele>
        <time>2026-08-15T07:57:15Z</time>
      </trkpt>
      <trkpt lat="44.60563" lon="0.77805">
        <ele>187.8</ele>
        <time>2026-08-15T07:57:16Z</time>
      </trkpt>
      <trkpt lat="44.6056" lon="0.77803">
        <ele>188</ele>
        <time>2026-08-15T07:57:17Z</time>
      </trkpt>
      <trkpt lat="44.60557" lon="0.77801">
        <ele>188</ele>
        <time>2026-08-15T07:57:18Z</time>
      </trkpt>
      <trkpt lat="44.60554" lon="0.77798">
        <ele>188.2</ele>
        <time>2026-08-15T07:57:19Z</time>
      </trkpt>
      <trkpt lat="44.60551" lon="0.77796">
        <ele>188.2</ele>
        <time>2026-08-15T07:57:20Z</time>
      </trkpt>
      <trkpt lat="44.60549" lon="0.77793">
        <ele>188</ele>
        <time>2026-08-15T07:57:21Z</time>
      </trkpt>
      <trkpt lat="44.60545" lon="0.7779">
        <ele>188</ele>
        <time>2026-08-15T07:57:22Z</time>
      </trkpt>
      <trkpt lat="44.60542" lon="0.77787">
        <ele>187.8</ele>
        <time>2026-08-15T07:57:23Z</time>
      </trkpt>
      <trkpt lat="44.60539" lon="0.77783">
        <ele>187.6</ele>
        <time>2026-08-15T07:57:24Z</time>
      </trkpt>
      <trkpt lat="44.60535" lon="0.7778">
        <ele>187.6</ele>
        <time>2026-08-15T07:57:25Z</time>
      </trkpt>
      <trkpt lat="44.60531" lon="0.77776">
        <ele>187.6</ele>
        <time>2026-08-15T07:57:26Z</time>
      </trkpt>
      <trkpt lat="44.60527" lon="0.77772">
        <ele>187.4</ele>
        <time>2026-08-15T07:57:27Z</time>
      </trkpt>
      <trkpt lat="44.60523" lon="0.77768">
        <ele>187.2</ele>
        <time>2026-08-15T07:57:28Z</time>
      </trkpt>
      <trkpt lat="44.60519" lon="0.77764">
        <ele>186.8</ele>
        <time>2026-08-15T07:57:29Z</time>
      </trkpt>
      <trkpt lat="44.60514" lon="0.77759">
        <ele>186.6</ele>
        <time>2026-08-15T07:57:30Z</time>
      </trkpt>
      <trkpt lat="44.60508" lon="0.77754">
        <ele>186.4</ele>
        <time>2026-08-15T07:57:31Z</time>
      </trkpt>
      <trkpt lat="44.60503" lon="0.7775">
        <ele>186</ele>
        <time>2026-08-15T07:57:32Z</time>
      </trkpt>
      <trkpt lat="44.60498" lon="0.77747">
        <ele>185.8</ele>
        <time>2026-08-15T07:57:33Z</time>
      </trkpt>
      <trkpt lat="44.60493" lon="0.77744">
        <ele>185.6</ele>
        <time>2026-08-15T07:57:34Z</time>
      </trkpt>
      <trkpt lat="44.60488" lon="0.77741">
        <ele>185.6</ele>
        <time>2026-08-15T07:57:35Z</time>
      </trkpt>
      <trkpt lat="44.60482" lon="0.77738">
        <ele>185.6</ele>
        <time>2026-08-15T07:57:36Z</time>
      </trkpt>
      <trkpt lat="44.60478" lon="0.77736">
        <ele>185.4</ele>
        <time>2026-08-15T07:57:37Z</time>
      </trkpt>
      <trkpt lat="44.60474" lon="0.77734">
        <ele>185.4</ele>
        <time>2026-08-15T07:57:38Z</time>
      </trkpt>
      <trkpt lat="44.6047" lon="0.77731">
        <ele>185.4</ele>
        <time>2026-08-15T07:57:39Z</time>
      </trkpt>
      <trkpt lat="44.60465" lon="0.77729">
        <ele>185.4</ele>
        <time>2026-08-15T07:57:40Z</time>
      </trkpt>
      <trkpt lat="44.60459" lon="0.77726">
        <ele>185.2</ele>
        <time>2026-08-15T07:57:41Z</time>
      </trkpt>
      <trkpt lat="44.60453" lon="0.77723">
        <ele>185.2</ele>
        <time>2026-08-15T07:57:42Z</time>
      </trkpt>
      <trkpt lat="44.60447" lon="0.7772">
        <ele>185.2</ele>
        <time>2026-08-15T07:57:43Z</time>
      </trkpt>
      <trkpt lat="44.60442" lon="0.77719">
        <ele>185</ele>
        <time>2026-08-15T07:57:44Z</time>
      </trkpt>
      <trkpt lat="44.60438" lon="0.77717">
        <ele>184.8</ele>
        <time>2026-08-15T07:57:45Z</time>
      </trkpt>
      <trkpt lat="44.60434" lon="0.77715">
        <ele>184.8</ele>
        <time>2026-08-15T07:57:46Z</time>
      </trkpt>
      <trkpt lat="44.60429" lon="0.77713">
        <ele>184.6</ele>
        <time>2026-08-15T07:57:47Z</time>
      </trkpt>
      <trkpt lat="44.60424" lon="0.77711">
        <ele>184.6</ele>
        <time>2026-08-15T07:57:48Z</time>
      </trkpt>
      <trkpt lat="44.60419" lon="0.77709">
        <ele>184.6</ele>
        <time>2026-08-15T07:57:49Z</time>
      </trkpt>
      <trkpt lat="44.60414" lon="0.77706">
        <ele>184.6</ele>
        <time>2026-08-15T07:57:50Z</time>
      </trkpt>
      <trkpt lat="44.60409" lon="0.77704">
        <ele>184.6</ele>
        <time>2026-08-15T07:57:51Z</time>
      </trkpt>
      <trkpt lat="44.60404" lon="0.77702">
        <ele>184.4</ele>
        <time>2026-08-15T07:57:52Z</time>
      </trkpt>
      <trkpt lat="44.60399" lon="0.777">
        <ele>184.4</ele>
        <time>2026-08-15T07:57:53Z</time>
      </trkpt>
      <trkpt lat="44.60394" lon="0.77698">
        <ele>184.4</ele>
        <time>2026-08-15T07:57:54Z</time>
      </trkpt>
      <trkpt lat="44.60389" lon="0.77696">
        <ele>184.4</ele>
        <time>2026-08-15T07:57:55Z</time>
      </trkpt>
      <trkpt lat="44.60384" lon="0.77694">
        <ele>184.4</ele>
        <time>2026-08-15T07:57:56Z</time>
      </trkpt>
      <trkpt lat="44.60379" lon="0.77692">
        <ele>184.4</ele>
        <time>2026-08-15T07:57:57Z</time>
      </trkpt>
      <trkpt lat="44.60375" lon="0.77689">
        <ele>184.4</ele>
        <time>2026-08-15T07:57:58Z</time>
      </trkpt>
      <trkpt lat="44.60371" lon="0.77687">
        <ele>184.4</ele>
        <time>2026-08-15T07:57:59Z</time>
      </trkpt>
      <trkpt lat="44.60367" lon="0.77683">
        <ele>184.4</ele>
        <time>2026-08-15T07:58:00Z</time>
      </trkpt>
      <trkpt lat="44.60365" lon="0.77679">
        <ele>184.4</ele>
        <time>2026-08-15T07:58:01Z</time>
      </trkpt>
      <trkpt lat="44.60363" lon="0.77673">
        <ele>184.4</ele>
        <time>2026-08-15T07:58:02Z</time>
      </trkpt>
      <trkpt lat="44.60361" lon="0.77668">
        <ele>184.2</ele>
        <time>2026-08-15T07:58:03Z</time>
      </trkpt>
      <trkpt lat="44.6036" lon="0.77662">
        <ele>184.2</ele>
        <time>2026-08-15T07:58:04Z</time>
      </trkpt>
      <trkpt lat="44.60359" lon="0.77656">
        <ele>184.2</ele>
        <time>2026-08-15T07:58:05Z</time>
      </trkpt>
      <trkpt lat="44.60357" lon="0.7765">
        <ele>184.2</ele>
        <time>2026-08-15T07:58:06Z</time>
      </trkpt>
      <trkpt lat="44.60356" lon="0.77643">
        <ele>184</ele>
        <time>2026-08-15T07:58:07Z</time>
      </trkpt>
      <trkpt lat="44.60354" lon="0.77636">
        <ele>183.8</ele>
        <time>2026-08-15T07:58:08Z</time>
      </trkpt>
      <trkpt lat="44.60353" lon="0.77629">
        <ele>183.8</ele>
        <time>2026-08-15T07:58:09Z</time>
      </trkpt>
      <trkpt lat="44.60351" lon="0.77622">
        <ele>183.6</ele>
        <time>2026-08-15T07:58:10Z</time>
      </trkpt>
      <trkpt lat="44.6035" lon="0.77615">
        <ele>183.6</ele>
        <time>2026-08-15T07:58:11Z</time>
      </trkpt>
      <trkpt lat="44.60348" lon="0.77607">
        <ele>183.2</ele>
        <time>2026-08-15T07:58:12Z</time>
      </trkpt>
      <trkpt lat="44.60346" lon="0.77597">
        <ele>182.6</ele>
        <time>2026-08-15T07:58:13Z</time>
      </trkpt>
      <trkpt lat="44.60344" lon="0.77588">
        <ele>182</ele>
        <time>2026-08-15T07:58:14Z</time>
      </trkpt>
      <trkpt lat="44.60342" lon="0.77579">
        <ele>181.4</ele>
        <time>2026-08-15T07:58:15Z</time>
      </trkpt>
      <trkpt lat="44.6034" lon="0.7757">
        <ele>181</ele>
        <time>2026-08-15T07:58:16Z</time>
      </trkpt>
      <trkpt lat="44.60337" lon="0.77561">
        <ele>180.6</ele>
        <time>2026-08-15T07:58:17Z</time>
      </trkpt>
      <trkpt lat="44.60335" lon="0.77552">
        <ele>180.2</ele>
        <time>2026-08-15T07:58:18Z</time>
      </trkpt>
      <trkpt lat="44.60333" lon="0.77544">
        <ele>179.4</ele>
        <time>2026-08-15T07:58:19Z</time>
      </trkpt>
      <trkpt lat="44.60331" lon="0.77535">
        <ele>179</ele>
        <time>2026-08-15T07:58:20Z</time>
      </trkpt>
      <trkpt lat="44.60329" lon="0.77527">
        <ele>178.6</ele>
        <time>2026-08-15T07:58:21Z</time>
      </trkpt>
      <trkpt lat="44.60326" lon="0.77518">
        <ele>178.2</ele>
        <time>2026-08-15T07:58:22Z</time>
      </trkpt>
      <trkpt lat="44.60324" lon="0.7751">
        <ele>177.6</ele>
        <time>2026-08-15T07:58:23Z</time>
      </trkpt>
      <trkpt lat="44.60322" lon="0.77502">
        <ele>177.4</ele>
        <time>2026-08-15T07:58:24Z</time>
      </trkpt>
      <trkpt lat="44.60319" lon="0.77494">
        <ele>177.2</ele>
        <time>2026-08-15T07:58:25Z</time>
      </trkpt>
      <trkpt lat="44.60317" lon="0.77488">
        <ele>176.8</ele>
        <time>2026-08-15T07:58:26Z</time>
      </trkpt>
      <trkpt lat="44.60316" lon="0.77484">
        <ele>176.6</ele>
        <time>2026-08-15T07:58:27Z</time>
      </trkpt>
      <trkpt lat="44.60315" lon="0.77479">
        <ele>176.2</ele>
        <time>2026-08-15T07:58:28Z</time>
      </trkpt>
      <trkpt lat="44.60314" lon="0.77474">
        <ele>175.6</ele>
        <time>2026-08-15T07:58:29Z</time>
      </trkpt>
      <trkpt lat="44.60313" lon="0.77469">
        <ele>175.4</ele>
        <time>2026-08-15T07:58:30Z</time>
      </trkpt>
      <trkpt lat="44.60312" lon="0.77465">
        <ele>175</ele>
        <time>2026-08-15T07:58:31Z</time>
      </trkpt>
      <trkpt lat="44.60311" lon="0.77461">
        <ele>174.6</ele>
        <time>2026-08-15T07:58:32Z</time>
      </trkpt>
      <trkpt lat="44.60309" lon="0.77457">
        <ele>174.4</ele>
        <time>2026-08-15T07:58:33Z</time>
      </trkpt>
      <trkpt lat="44.60308" lon="0.77452">
        <ele>173.8</ele>
        <time>2026-08-15T07:58:34Z</time>
      </trkpt>
      <trkpt lat="44.60307" lon="0.77448">
        <ele>173.6</ele>
        <time>2026-08-15T07:58:35Z</time>
      </trkpt>
      <trkpt lat="44.60306" lon="0.77444">
        <ele>173.2</ele>
        <time>2026-08-15T07:58:36Z</time>
      </trkpt>
      <trkpt lat="44.60305" lon="0.7744">
        <ele>173</ele>
        <time>2026-08-15T07:58:37Z</time>
      </trkpt>
      <trkpt lat="44.60305" lon="0.77439">
        <ele>172.8</ele>
        <time>2026-08-15T07:58:38Z</time>
      </trkpt>
      <trkpt lat="44.60304" lon="0.77436">
        <ele>172.6</ele>
        <time>2026-08-15T07:58:39Z</time>
      </trkpt>
      <trkpt lat="44.60303" lon="0.77433">
        <ele>172.6</ele>
        <time>2026-08-15T07:58:40Z</time>
      </trkpt>
      <trkpt lat="44.60302" lon="0.7743">
        <ele>172.4</ele>
        <time>2026-08-15T07:58:41Z</time>
      </trkpt>
      <trkpt lat="44.60301" lon="0.77424">
        <ele>172.2</ele>
        <time>2026-08-15T07:58:42Z</time>
      </trkpt>
      <trkpt lat="44.603" lon="0.77419">
        <ele>171.8</ele>
        <time>2026-08-15T07:58:43Z</time>
      </trkpt>
      <trkpt lat="44.60299" lon="0.77415">
        <ele>171.6</ele>
        <time>2026-08-15T07:58:44Z</time>
      </trkpt>
      <trkpt lat="44.60299" lon="0.77412">
        <ele>171.6</ele>
        <time>2026-08-15T07:58:45Z</time>
      </trkpt>
      <trkpt lat="44.60298" lon="0.7741">
        <ele>171.4</ele>
        <time>2026-08-15T07:58:46Z</time>
      </trkpt>
      <trkpt lat="44.60297" lon="0.77407">
        <ele>171.2</ele>
        <time>2026-08-15T07:58:47Z</time>
      </trkpt>
      <trkpt lat="44.60296" lon="0.77401">
        <ele>170.8</ele>
        <time>2026-08-15T07:58:48Z</time>
      </trkpt>
      <trkpt lat="44.60295" lon="0.77397">
        <ele>170.6</ele>
        <time>2026-08-15T07:58:49Z</time>
      </trkpt>
      <trkpt lat="44.60294" lon="0.77392">
        <ele>170.2</ele>
        <time>2026-08-15T07:58:50Z</time>
      </trkpt>
      <trkpt lat="44.60293" lon="0.77388">
        <ele>169.8</ele>
        <time>2026-08-15T07:58:51Z</time>
      </trkpt>
      <trkpt lat="44.60292" lon="0.77384">
        <ele>169.6</ele>
        <time>2026-08-15T07:58:52Z</time>
      </trkpt>
      <trkpt lat="44.60291" lon="0.77381">
        <ele>169.4</ele>
        <time>2026-08-15T07:58:53Z</time>
      </trkpt>
      <trkpt lat="44.60291" lon="0.77379">
        <ele>169.2</ele>
        <time>2026-08-15T07:58:54Z</time>
      </trkpt>
      <trkpt lat="44.6029" lon="0.77377">
        <ele>169</ele>
        <time>2026-08-15T07:58:55Z</time>
      </trkpt>
      <trkpt lat="44.6029" lon="0.77374">
        <ele>168.8</ele>
        <time>2026-08-15T07:58:56Z</time>
      </trkpt>
      <trkpt lat="44.60289" lon="0.7737">
        <ele>168.6</ele>
        <time>2026-08-15T07:58:57Z</time>
      </trkpt>
      <trkpt lat="44.60289" lon="0.77367">
        <ele>168.6</ele>
        <time>2026-08-15T07:58:58Z</time>
      </trkpt>
      <trkpt lat="44.60288" lon="0.7736">
        <ele>168.4</ele>
        <time>2026-08-15T07:58:59Z</time>
      </trkpt>
      <trkpt lat="44.60287" lon="0.77355">
        <ele>168.2</ele>
        <time>2026-08-15T07:59:00Z</time>
      </trkpt>
      <trkpt lat="44.60286" lon="0.7735">
        <ele>168</ele>
        <time>2026-08-15T07:59:01Z</time>
      </trkpt>
      <trkpt lat="44.60286" lon="0.77344">
        <ele>167.8</ele>
        <time>2026-08-15T07:59:02Z</time>
      </trkpt>
      <trkpt lat="44.60285" lon="0.77338">
        <ele>167.6</ele>
        <time>2026-08-15T07:59:03Z</time>
      </trkpt>
      <trkpt lat="44.60284" lon="0.77332">
        <ele>167.6</ele>
        <time>2026-08-15T07:59:04Z</time>
      </trkpt>
      <trkpt lat="44.60284" lon="0.77327">
        <ele>167.6</ele>
        <time>2026-08-15T07:59:05Z</time>
      </trkpt>
      <trkpt lat="44.60283" lon="0.77321">
        <ele>167.4</ele>
        <time>2026-08-15T07:59:06Z</time>
      </trkpt>
      <trkpt lat="44.60282" lon="0.77315">
        <ele>167.4</ele>
        <time>2026-08-15T07:59:07Z</time>
      </trkpt>
      <trkpt lat="44.60281" lon="0.7731">
        <ele>167.4</ele>
        <time>2026-08-15T07:59:08Z</time>
      </trkpt>
      <trkpt lat="44.60279" lon="0.77304">
        <ele>167.4</ele>
        <time>2026-08-15T07:59:09Z</time>
      </trkpt>
      <trkpt lat="44.60278" lon="0.77298">
        <ele>167.4</ele>
        <time>2026-08-15T07:59:10Z</time>
      </trkpt>
      <trkpt lat="44.60276" lon="0.77292">
        <ele>167.4</ele>
        <time>2026-08-15T07:59:11Z</time>
      </trkpt>
      <trkpt lat="44.60275" lon="0.77287">
        <ele>167.4</ele>
        <time>2026-08-15T07:59:12Z</time>
      </trkpt>
      <trkpt lat="44.60274" lon="0.77281">
        <ele>167.4</ele>
        <time>2026-08-15T07:59:13Z</time>
      </trkpt>
      <trkpt lat="44.60273" lon="0.77276">
        <ele>167.6</ele>
        <time>2026-08-15T07:59:14Z</time>
      </trkpt>
      <trkpt lat="44.60272" lon="0.77271">
        <ele>167.6</ele>
        <time>2026-08-15T07:59:15Z</time>
      </trkpt>
      <trkpt lat="44.60271" lon="0.77266">
        <ele>167.8</ele>
        <time>2026-08-15T07:59:16Z</time>
      </trkpt>
      <trkpt lat="44.6027" lon="0.77262">
        <ele>168</ele>
        <time>2026-08-15T07:59:17Z</time>
      </trkpt>
      <trkpt lat="44.60269" lon="0.77257">
        <ele>168.2</ele>
        <time>2026-08-15T07:59:18Z</time>
      </trkpt>
      <trkpt lat="44.60268" lon="0.77253">
        <ele>168.4</ele>
        <time>2026-08-15T07:59:19Z</time>
      </trkpt>
      <trkpt lat="44.60266" lon="0.77248">
        <ele>168.6</ele>
        <time>2026-08-15T07:59:20Z</time>
      </trkpt>
      <trkpt lat="44.60265" lon="0.77244">
        <ele>168.8</ele>
        <time>2026-08-15T07:59:21Z</time>
      </trkpt>
      <trkpt lat="44.60264" lon="0.7724">
        <ele>169.2</ele>
        <time>2026-08-15T07:59:22Z</time>
      </trkpt>
      <trkpt lat="44.60262" lon="0.77236">
        <ele>169.4</ele>
        <time>2026-08-15T07:59:23Z</time>
      </trkpt>
      <trkpt lat="44.60261" lon="0.77233">
        <ele>169.6</ele>
        <time>2026-08-15T07:59:24Z</time>
      </trkpt>
      <trkpt lat="44.60259" lon="0.77229">
        <ele>169.8</ele>
        <time>2026-08-15T07:59:25Z</time>
      </trkpt>
      <trkpt lat="44.60258" lon="0.77226">
        <ele>170.2</ele>
        <time>2026-08-15T07:59:26Z</time>
      </trkpt>
      <trkpt lat="44.60256" lon="0.77222">
        <ele>170.6</ele>
        <time>2026-08-15T07:59:27Z</time>
      </trkpt>
      <trkpt lat="44.60255" lon="0.77219">
        <ele>171</ele>
        <time>2026-08-15T07:59:28Z</time>
      </trkpt>
      <trkpt lat="44.60253" lon="0.77216">
        <ele>171.4</ele>
        <time>2026-08-15T07:59:29Z</time>
      </trkpt>
      <trkpt lat="44.60251" lon="0.77214">
        <ele>171.6</ele>
        <time>2026-08-15T07:59:30Z</time>
      </trkpt>
      <trkpt lat="44.60249" lon="0.77211">
        <ele>172</ele>
        <time>2026-08-15T07:59:31Z</time>
      </trkpt>
      <trkpt lat="44.60247" lon="0.77208">
        <ele>172.2</ele>
        <time>2026-08-15T07:59:32Z</time>
      </trkpt>
      <trkpt lat="44.60245" lon="0.77205">
        <ele>172.6</ele>
        <time>2026-08-15T07:59:33Z</time>
      </trkpt>
      <trkpt lat="44.60243" lon="0.77202">
        <ele>172.6</ele>
        <time>2026-08-15T07:59:34Z</time>
      </trkpt>
      <trkpt lat="44.60241" lon="0.77199">
        <ele>172.6</ele>
        <time>2026-08-15T07:59:35Z</time>
      </trkpt>
      <trkpt lat="44.60239" lon="0.77195">
        <ele>172.8</ele>
        <time>2026-08-15T07:59:36Z</time>
      </trkpt>
      <trkpt lat="44.60238" lon="0.77191">
        <ele>172.6</ele>
        <time>2026-08-15T07:59:37Z</time>
      </trkpt>
      <trkpt lat="44.60237" lon="0.77185">
        <ele>172.6</ele>
        <time>2026-08-15T07:59:38Z</time>
      </trkpt>
      <trkpt lat="44.60236" lon="0.77178">
        <ele>172.6</ele>
        <time>2026-08-15T07:59:39Z</time>
      </trkpt>
      <trkpt lat="44.60235" lon="0.77171">
        <ele>172.4</ele>
        <time>2026-08-15T07:59:40Z</time>
      </trkpt>
      <trkpt lat="44.60235" lon="0.77165">
        <ele>172</ele>
        <time>2026-08-15T07:59:41Z</time>
      </trkpt>
      <trkpt lat="44.60235" lon="0.77158">
        <ele>171.6</ele>
        <time>2026-08-15T07:59:42Z</time>
      </trkpt>
      <trkpt lat="44.60234" lon="0.77152">
        <ele>171.2</ele>
        <time>2026-08-15T07:59:43Z</time>
      </trkpt>
      <trkpt lat="44.60233" lon="0.77145">
        <ele>170.8</ele>
        <time>2026-08-15T07:59:44Z</time>
      </trkpt>
      <trkpt lat="44.60231" lon="0.77139">
        <ele>170.6</ele>
        <time>2026-08-15T07:59:45Z</time>
      </trkpt>
      <trkpt lat="44.60229" lon="0.77132">
        <ele>170.2</ele>
        <time>2026-08-15T07:59:46Z</time>
      </trkpt>
      <trkpt lat="44.60227" lon="0.77126">
        <ele>169.8</ele>
        <time>2026-08-15T07:59:47Z</time>
      </trkpt>
      <trkpt lat="44.60224" lon="0.77119">
        <ele>169.6</ele>
        <time>2026-08-15T07:59:48Z</time>
      </trkpt>
      <trkpt lat="44.6022" lon="0.7711">
        <ele>169.4</ele>
        <time>2026-08-15T07:59:49Z</time>
      </trkpt>
      <trkpt lat="44.60217" lon="0.77104">
        <ele>169.4</ele>
        <time>2026-08-15T07:59:50Z</time>
      </trkpt>
      <trkpt lat="44.60214" lon="0.77097">
        <ele>169.2</ele>
        <time>2026-08-15T07:59:51Z</time>
      </trkpt>
      <trkpt lat="44.60212" lon="0.77093">
        <ele>169</ele>
        <time>2026-08-15T07:59:52Z</time>
      </trkpt>
      <trkpt lat="44.60209" lon="0.77088">
        <ele>168.8</ele>
        <time>2026-08-15T07:59:53Z</time>
      </trkpt>
      <trkpt lat="44.60206" lon="0.77081">
        <ele>168.8</ele>
        <time>2026-08-15T07:59:54Z</time>
      </trkpt>
      <trkpt lat="44.60204" lon="0.77075">
        <ele>168.6</ele>
        <time>2026-08-15T07:59:55Z</time>
      </trkpt>
      <trkpt lat="44.60202" lon="0.77068">
        <ele>168.6</ele>
        <time>2026-08-15T07:59:56Z</time>
      </trkpt>
      <trkpt lat="44.602" lon="0.77062">
        <ele>168.6</ele>
        <time>2026-08-15T07:59:57Z</time>
      </trkpt>
      <trkpt lat="44.60198" lon="0.77055">
        <ele>168.4</ele>
        <time>2026-08-15T07:59:58Z</time>
      </trkpt>
      <trkpt lat="44.60198" lon="0.77048">
        <ele>168.4</ele>
        <time>2026-08-15T07:59:59Z</time>
      </trkpt>
      <trkpt lat="44.60197" lon="0.77042">
        <ele>168.2</ele>
        <time>2026-08-15T08:00:00Z</time>
      </trkpt>
      <trkpt lat="44.60197" lon="0.77036">
        <ele>168.2</ele>
        <time>2026-08-15T08:00:01Z</time>
      </trkpt>
      <trkpt lat="44.60197" lon="0.7703">
        <ele>168.2</ele>
        <time>2026-08-15T08:00:02Z</time>
      </trkpt>
      <trkpt lat="44.60197" lon="0.77024">
        <ele>168.2</ele>
        <time>2026-08-15T08:00:03Z</time>
      </trkpt>
      <trkpt lat="44.60197" lon="0.77018">
        <ele>168.2</ele>
        <time>2026-08-15T08:00:04Z</time>
      </trkpt>
      <trkpt lat="44.60197" lon="0.77012">
        <ele>168.2</ele>
        <time>2026-08-15T08:00:05Z</time>
      </trkpt>
      <trkpt lat="44.60197" lon="0.77006">
        <ele>168.2</ele>
        <time>2026-08-15T08:00:06Z</time>
      </trkpt>
      <trkpt lat="44.60196" lon="0.77">
        <ele>168.2</ele>
        <time>2026-08-15T08:00:07Z</time>
      </trkpt>
      <trkpt lat="44.60196" lon="0.76994">
        <ele>168.4</ele>
        <time>2026-08-15T08:00:08Z</time>
      </trkpt>
      <trkpt lat="44.60194" lon="0.76988">
        <ele>168.4</ele>
        <time>2026-08-15T08:00:09Z</time>
      </trkpt>
      <trkpt lat="44.60193" lon="0.76983">
        <ele>168.6</ele>
        <time>2026-08-15T08:00:10Z</time>
      </trkpt>
      <trkpt lat="44.60191" lon="0.76978">
        <ele>168.8</ele>
        <time>2026-08-15T08:00:11Z</time>
      </trkpt>
      <trkpt lat="44.6019" lon="0.76972">
        <ele>169</ele>
        <time>2026-08-15T08:00:12Z</time>
      </trkpt>
      <trkpt lat="44.60188" lon="0.76967">
        <ele>169.2</ele>
        <time>2026-08-15T08:00:13Z</time>
      </trkpt>
      <trkpt lat="44.60187" lon="0.76962">
        <ele>169.4</ele>
        <time>2026-08-15T08:00:14Z</time>
      </trkpt>
      <trkpt lat="44.60185" lon="0.76957">
        <ele>169.6</ele>
        <time>2026-08-15T08:00:15Z</time>
      </trkpt>
      <trkpt lat="44.60184" lon="0.76952">
        <ele>169.8</ele>
        <time>2026-08-15T08:00:16Z</time>
      </trkpt>
      <trkpt lat="44.60183" lon="0.76947">
        <ele>170</ele>
        <time>2026-08-15T08:00:17Z</time>
      </trkpt>
      <trkpt lat="44.60181" lon="0.76942">
        <ele>170.2</ele>
        <time>2026-08-15T08:00:18Z</time>
      </trkpt>
      <trkpt lat="44.6018" lon="0.76937">
        <ele>170.4</ele>
        <time>2026-08-15T08:00:19Z</time>
      </trkpt>
      <trkpt lat="44.60178" lon="0.76932">
        <ele>170.6</ele>
        <time>2026-08-15T08:00:20Z</time>
      </trkpt>
      <trkpt lat="44.60177" lon="0.76927">
        <ele>170.8</ele>
        <time>2026-08-15T08:00:21Z</time>
      </trkpt>
      <trkpt lat="44.60176" lon="0.76923">
        <ele>171.2</ele>
        <time>2026-08-15T08:00:22Z</time>
      </trkpt>
      <trkpt lat="44.60174" lon="0.76919">
        <ele>171.4</ele>
        <time>2026-08-15T08:00:23Z</time>
      </trkpt>
      <trkpt lat="44.60172" lon="0.76915">
        <ele>171.4</ele>
        <time>2026-08-15T08:00:24Z</time>
      </trkpt>
      <trkpt lat="44.6017" lon="0.76912">
        <ele>171.6</ele>
        <time>2026-08-15T08:00:25Z</time>
      </trkpt>
      <trkpt lat="44.60168" lon="0.76909">
        <ele>171.6</ele>
        <time>2026-08-15T08:00:26Z</time>
      </trkpt>
      <trkpt lat="44.60166" lon="0.76907">
        <ele>171.8</ele>
        <time>2026-08-15T08:00:27Z</time>
      </trkpt>
      <trkpt lat="44.60163" lon="0.76906">
        <ele>171.8</ele>
        <time>2026-08-15T08:00:28Z</time>
      </trkpt>
      <trkpt lat="44.6016" lon="0.76906">
        <ele>172</ele>
        <time>2026-08-15T08:00:29Z</time>
      </trkpt>
      <trkpt lat="44.60157" lon="0.76906">
        <ele>172.2</ele>
        <time>2026-08-15T08:00:30Z</time>
      </trkpt>
      <trkpt lat="44.60153" lon="0.76906">
        <ele>172.2</ele>
        <time>2026-08-15T08:00:31Z</time>
      </trkpt>
      <trkpt lat="44.60149" lon="0.76907">
        <ele>172.4</ele>
        <time>2026-08-15T08:00:32Z</time>
      </trkpt>
      <trkpt lat="44.60146" lon="0.76907">
        <ele>172.6</ele>
        <time>2026-08-15T08:00:33Z</time>
      </trkpt>
      <trkpt lat="44.60142" lon="0.76907">
        <ele>172.6</ele>
        <time>2026-08-15T08:00:34Z</time>
      </trkpt>
      <trkpt lat="44.60138" lon="0.76907">
        <ele>172.6</ele>
        <time>2026-08-15T08:00:35Z</time>
      </trkpt>
      <trkpt lat="44.60134" lon="0.76908">
        <ele>172.6</ele>
        <time>2026-08-15T08:00:36Z</time>
      </trkpt>
      <trkpt lat="44.60131" lon="0.76908">
        <ele>172.6</ele>
        <time>2026-08-15T08:00:37Z</time>
      </trkpt>
      <trkpt lat="44.60127" lon="0.76908">
        <ele>172.6</ele>
        <time>2026-08-15T08:00:38Z</time>
      </trkpt>
      <trkpt lat="44.60123" lon="0.76908">
        <ele>172.6</ele>
        <time>2026-08-15T08:00:39Z</time>
      </trkpt>
      <trkpt lat="44.60119" lon="0.76908">
        <ele>172.6</ele>
        <time>2026-08-15T08:00:40Z</time>
      </trkpt>
      <trkpt lat="44.60115" lon="0.76907">
        <ele>172.8</ele>
        <time>2026-08-15T08:00:41Z</time>
      </trkpt>
      <trkpt lat="44.60111" lon="0.76907">
        <ele>172.8</ele>
        <time>2026-08-15T08:00:42Z</time>
      </trkpt>
      <trkpt lat="44.60107" lon="0.76906">
        <ele>173.2</ele>
        <time>2026-08-15T08:00:43Z</time>
      </trkpt>
      <trkpt lat="44.60103" lon="0.76905">
        <ele>173.2</ele>
        <time>2026-08-15T08:00:44Z</time>
      </trkpt>
      <trkpt lat="44.60099" lon="0.76904">
        <ele>173.2</ele>
        <time>2026-08-15T08:00:45Z</time>
      </trkpt>
      <trkpt lat="44.60095" lon="0.76902">
        <ele>173.4</ele>
        <time>2026-08-15T08:00:46Z</time>
      </trkpt>
      <trkpt lat="44.60091" lon="0.76901">
        <ele>173.4</ele>
        <time>2026-08-15T08:00:47Z</time>
      </trkpt>
      <trkpt lat="44.60088" lon="0.76899">
        <ele>173.4</ele>
        <time>2026-08-15T08:00:48Z</time>
      </trkpt>
      <trkpt lat="44.60084" lon="0.76897">
        <ele>173.6</ele>
        <time>2026-08-15T08:00:49Z</time>
      </trkpt>
      <trkpt lat="44.6008" lon="0.76895">
        <ele>173.6</ele>
        <time>2026-08-15T08:00:50Z</time>
      </trkpt>
      <trkpt lat="44.60077" lon="0.76894">
        <ele>173.6</ele>
        <time>2026-08-15T08:00:51Z</time>
      </trkpt>
      <trkpt lat="44.60073" lon="0.76892">
        <ele>173.8</ele>
        <time>2026-08-15T08:00:52Z</time>
      </trkpt>
      <trkpt lat="44.6007" lon="0.7689">
        <ele>173.8</ele>
        <time>2026-08-15T08:00:53Z</time>
      </trkpt>
      <trkpt lat="44.60066" lon="0.76889">
        <ele>174</ele>
        <time>2026-08-15T08:00:54Z</time>
      </trkpt>
      <trkpt lat="44.60062" lon="0.76887">
        <ele>174.2</ele>
        <time>2026-08-15T08:00:55Z</time>
      </trkpt>
      <trkpt lat="44.60059" lon="0.76885">
        <ele>174.2</ele>
        <time>2026-08-15T08:00:56Z</time>
      </trkpt>
      <trkpt lat="44.60055" lon="0.76884">
        <ele>174.4</ele>
        <time>2026-08-15T08:00:57Z</time>
      </trkpt>
      <trkpt lat="44.60052" lon="0.76883">
        <ele>174.4</ele>
        <time>2026-08-15T08:00:58Z</time>
      </trkpt>
      <trkpt lat="44.60048" lon="0.76881">
        <ele>174.6</ele>
        <time>2026-08-15T08:00:59Z</time>
      </trkpt>
      <trkpt lat="44.60044" lon="0.7688">
        <ele>174.6</ele>
        <time>2026-08-15T08:01:00Z</time>
      </trkpt>
      <trkpt lat="44.6004" lon="0.76879">
        <ele>174.8</ele>
        <time>2026-08-15T08:01:01Z</time>
      </trkpt>
      <trkpt lat="44.60037" lon="0.76878">
        <ele>175</ele>
        <time>2026-08-15T08:01:02Z</time>
      </trkpt>
      <trkpt lat="44.60033" lon="0.76877">
        <ele>175.2</ele>
        <time>2026-08-15T08:01:03Z</time>
      </trkpt>
      <trkpt lat="44.60029" lon="0.76877">
        <ele>175.2</ele>
        <time>2026-08-15T08:01:04Z</time>
      </trkpt>
      <trkpt lat="44.60025" lon="0.76876">
        <ele>175.4</ele>
        <time>2026-08-15T08:01:05Z</time>
      </trkpt>
      <trkpt lat="44.60021" lon="0.76876">
        <ele>175.4</ele>
        <time>2026-08-15T08:01:06Z</time>
      </trkpt>
      <trkpt lat="44.60018" lon="0.76876">
        <ele>175.4</ele>
        <time>2026-08-15T08:01:07Z</time>
      </trkpt>
      <trkpt lat="44.60014" lon="0.76875">
        <ele>175.4</ele>
        <time>2026-08-15T08:01:08Z</time>
      </trkpt>
      <trkpt lat="44.6001" lon="0.76875">
        <ele>175.4</ele>
        <time>2026-08-15T08:01:09Z</time>
      </trkpt>
      <trkpt lat="44.60006" lon="0.76875">
        <ele>175.4</ele>
        <time>2026-08-15T08:01:10Z</time>
      </trkpt>
      <trkpt lat="44.60001" lon="0.76875">
        <ele>175.4</ele>
        <time>2026-08-15T08:01:11Z</time>
      </trkpt>
      <trkpt lat="44.59997" lon="0.76875">
        <ele>175.4</ele>
        <time>2026-08-15T08:01:12Z</time>
      </trkpt>
      <trkpt lat="44.59992" lon="0.76875">
        <ele>175.2</ele>
        <time>2026-08-15T08:01:13Z</time>
      </trkpt>
      <trkpt lat="44.59987" lon="0.76875">
        <ele>175</ele>
        <time>2026-08-15T08:01:14Z</time>
      </trkpt>
      <trkpt lat="44.59983" lon="0.76874">
        <ele>174.8</ele>
        <time>2026-08-15T08:01:15Z</time>
      </trkpt>
      <trkpt lat="44.59979" lon="0.76874">
        <ele>174.6</ele>
        <time>2026-08-15T08:01:16Z</time>
      </trkpt>
      <trkpt lat="44.59975" lon="0.76874">
        <ele>174.6</ele>
        <time>2026-08-15T08:01:17Z</time>
      </trkpt>
      <trkpt lat="44.5997" lon="0.76873">
        <ele>174.4</ele>
        <time>2026-08-15T08:01:18Z</time>
      </trkpt>
      <trkpt lat="44.59966" lon="0.76873">
        <ele>174</ele>
        <time>2026-08-15T08:01:19Z</time>
      </trkpt>
      <trkpt lat="44.59962" lon="0.76873">
        <ele>173.6</ele>
        <time>2026-08-15T08:01:20Z</time>
      </trkpt>
      <trkpt lat="44.59958" lon="0.76874">
        <ele>173.4</ele>
        <time>2026-08-15T08:01:21Z</time>
      </trkpt>
      <trkpt lat="44.59956" lon="0.76874">
        <ele>172.8</ele>
        <time>2026-08-15T08:01:22Z</time>
      </trkpt>
      <trkpt lat="44.59954" lon="0.76874">
        <ele>172.6</ele>
        <time>2026-08-15T08:01:23Z</time>
      </trkpt>
      <trkpt lat="44.59952" lon="0.76873">
        <ele>172.4</ele>
        <time>2026-08-15T08:01:24Z</time>
      </trkpt>
      <trkpt lat="44.59951" lon="0.76873">
        <ele>172.4</ele>
        <time>2026-08-15T08:01:25Z</time>
      </trkpt>
      <trkpt lat="44.5995" lon="0.76873">
        <ele>172.2</ele>
        <time>2026-08-15T08:01:26Z</time>
      </trkpt>
      <trkpt lat="44.59949" lon="0.76873">
        <ele>172</ele>
        <time>2026-08-15T08:01:27Z</time>
      </trkpt>
      <trkpt lat="44.59948" lon="0.76873">
        <ele>171.8</ele>
        <time>2026-08-15T08:01:28Z</time>
      </trkpt>
      <trkpt lat="44.59946" lon="0.76873">
        <ele>171.8</ele>
        <time>2026-08-15T08:01:29Z</time>
      </trkpt>
      <trkpt lat="44.59943" lon="0.76873">
        <ele>171.8</ele>
        <time>2026-08-15T08:01:30Z</time>
      </trkpt>
      <trkpt lat="44.5994" lon="0.76873">
        <ele>171.6</ele>
        <time>2026-08-15T08:01:31Z</time>
      </trkpt>
      <trkpt lat="44.59935" lon="0.76873">
        <ele>171.4</ele>
        <time>2026-08-15T08:01:32Z</time>
      </trkpt>
      <trkpt lat="44.59931" lon="0.76872">
        <ele>171.2</ele>
        <time>2026-08-15T08:01:33Z</time>
      </trkpt>
      <trkpt lat="44.59927" lon="0.76872">
        <ele>171</ele>
        <time>2026-08-15T08:01:34Z</time>
      </trkpt>
      <trkpt lat="44.59923" lon="0.76872">
        <ele>170.8</ele>
        <time>2026-08-15T08:01:35Z</time>
      </trkpt>
      <trkpt lat="44.59918" lon="0.76872">
        <ele>170.6</ele>
        <time>2026-08-15T08:01:36Z</time>
      </trkpt>
      <trkpt lat="44.59914" lon="0.76872">
        <ele>170.4</ele>
        <time>2026-08-15T08:01:37Z</time>
      </trkpt>
      <trkpt lat="44.59909" lon="0.76872">
        <ele>170.2</ele>
        <time>2026-08-15T08:01:38Z</time>
      </trkpt>
      <trkpt lat="44.59904" lon="0.76872">
        <ele>169.8</ele>
        <time>2026-08-15T08:01:39Z</time>
      </trkpt>
      <trkpt lat="44.59899" lon="0.76872">
        <ele>169.6</ele>
        <time>2026-08-15T08:01:40Z</time>
      </trkpt>
      <trkpt lat="44.59893" lon="0.76872">
        <ele>169.6</ele>
        <time>2026-08-15T08:01:41Z</time>
      </trkpt>
      <trkpt lat="44.59888" lon="0.76873">
        <ele>169.2</ele>
        <time>2026-08-15T08:01:42Z</time>
      </trkpt>
      <trkpt lat="44.5988" lon="0.76874">
        <ele>168.8</ele>
        <time>2026-08-15T08:01:43Z</time>
      </trkpt>
      <trkpt lat="44.59875" lon="0.76876">
        <ele>168.6</ele>
        <time>2026-08-15T08:01:44Z</time>
      </trkpt>
      <trkpt lat="44.59869" lon="0.76877">
        <ele>168.4</ele>
        <time>2026-08-15T08:01:45Z</time>
      </trkpt>
      <trkpt lat="44.59864" lon="0.76877">
        <ele>168.4</ele>
        <time>2026-08-15T08:01:46Z</time>
      </trkpt>
      <trkpt lat="44.59861" lon="0.76877">
        <ele>168.2</ele>
        <time>2026-08-15T08:01:47Z</time>
      </trkpt>
      <trkpt lat="44.59857" lon="0.76877">
        <ele>168.2</ele>
        <time>2026-08-15T08:01:48Z</time>
      </trkpt>
      <trkpt lat="44.59853" lon="0.76877">
        <ele>168.2</ele>
        <time>2026-08-15T08:01:49Z</time>
      </trkpt>
      <trkpt lat="44.59849" lon="0.76876">
        <ele>168.4</ele>
        <time>2026-08-15T08:01:50Z</time>
      </trkpt>
      <trkpt lat="44.59845" lon="0.76876">
        <ele>168.4</ele>
        <time>2026-08-15T08:01:51Z</time>
      </trkpt>
      <trkpt lat="44.59842" lon="0.76876">
        <ele>168.6</ele>
        <time>2026-08-15T08:01:52Z</time>
      </trkpt>
      <trkpt lat="44.59837" lon="0.76876">
        <ele>168.6</ele>
        <time>2026-08-15T08:01:53Z</time>
      </trkpt>
      <trkpt lat="44.59833" lon="0.76876">
        <ele>168.6</ele>
        <time>2026-08-15T08:01:54Z</time>
      </trkpt>
      <trkpt lat="44.59829" lon="0.76876">
        <ele>168.8</ele>
        <time>2026-08-15T08:01:55Z</time>
      </trkpt>
      <trkpt lat="44.59824" lon="0.76877">
        <ele>168.8</ele>
        <time>2026-08-15T08:01:56Z</time>
      </trkpt>
      <trkpt lat="44.5982" lon="0.76877">
        <ele>169</ele>
        <time>2026-08-15T08:01:57Z</time>
      </trkpt>
      <trkpt lat="44.59816" lon="0.76877">
        <ele>169.2</ele>
        <time>2026-08-15T08:01:58Z</time>
      </trkpt>
      <trkpt lat="44.59811" lon="0.76877">
        <ele>169.4</ele>
        <time>2026-08-15T08:01:59Z</time>
      </trkpt>
      <trkpt lat="44.59807" lon="0.76877">
        <ele>169.4</ele>
        <time>2026-08-15T08:02:00Z</time>
      </trkpt>
      <trkpt lat="44.59803" lon="0.76877">
        <ele>169.6</ele>
        <time>2026-08-15T08:02:01Z</time>
      </trkpt>
      <trkpt lat="44.59798" lon="0.76877">
        <ele>169.8</ele>
        <time>2026-08-15T08:02:02Z</time>
      </trkpt>
      <trkpt lat="44.59794" lon="0.76877">
        <ele>170</ele>
        <time>2026-08-15T08:02:03Z</time>
      </trkpt>
      <trkpt lat="44.5979" lon="0.76876">
        <ele>170.2</ele>
        <time>2026-08-15T08:02:04Z</time>
      </trkpt>
      <trkpt lat="44.59787" lon="0.76875">
        <ele>170.4</ele>
        <time>2026-08-15T08:02:05Z</time>
      </trkpt>
      <trkpt lat="44.59783" lon="0.76874">
        <ele>170.6</ele>
        <time>2026-08-15T08:02:06Z</time>
      </trkpt>
      <trkpt lat="44.5978" lon="0.76872">
        <ele>170.6</ele>
        <time>2026-08-15T08:02:07Z</time>
      </trkpt>
      <trkpt lat="44.59776" lon="0.76871">
        <ele>170.8</ele>
        <time>2026-08-15T08:02:08Z</time>
      </trkpt>
      <trkpt lat="44.59773" lon="0.76869">
        <ele>171.2</ele>
        <time>2026-08-15T08:02:09Z</time>
      </trkpt>
      <trkpt lat="44.5977" lon="0.76867">
        <ele>171.6</ele>
        <time>2026-08-15T08:02:10Z</time>
      </trkpt>
      <trkpt lat="44.59766" lon="0.76865">
        <ele>171.6</ele>
        <time>2026-08-15T08:02:11Z</time>
      </trkpt>
      <trkpt lat="44.59763" lon="0.76863">
        <ele>171.8</ele>
        <time>2026-08-15T08:02:12Z</time>
      </trkpt>
      <trkpt lat="44.59761" lon="0.76861">
        <ele>171.8</ele>
        <time>2026-08-15T08:02:13Z</time>
      </trkpt>
      <trkpt lat="44.59758" lon="0.76859">
        <ele>172</ele>
        <time>2026-08-15T08:02:14Z</time>
      </trkpt>
      <trkpt lat="44.59755" lon="0.76857">
        <ele>172</ele>
        <time>2026-08-15T08:02:15Z</time>
      </trkpt>
      <trkpt lat="44.59751" lon="0.76854">
        <ele>172.2</ele>
        <time>2026-08-15T08:02:16Z</time>
      </trkpt>
      <trkpt lat="44.59748" lon="0.76852">
        <ele>172.2</ele>
        <time>2026-08-15T08:02:17Z</time>
      </trkpt>
      <trkpt lat="44.59744" lon="0.76849">
        <ele>172.2</ele>
        <time>2026-08-15T08:02:18Z</time>
      </trkpt>
      <trkpt lat="44.5974" lon="0.76846">
        <ele>172</ele>
        <time>2026-08-15T08:02:19Z</time>
      </trkpt>
      <trkpt lat="44.59736" lon="0.76843">
        <ele>172</ele>
        <time>2026-08-15T08:02:20Z</time>
      </trkpt>
      <trkpt lat="44.59732" lon="0.7684">
        <ele>171.8</ele>
        <time>2026-08-15T08:02:21Z</time>
      </trkpt>
      <trkpt lat="44.59728" lon="0.76837">
        <ele>171.6</ele>
        <time>2026-08-15T08:02:22Z</time>
      </trkpt>
      <trkpt lat="44.59723" lon="0.76834">
        <ele>171.4</ele>
        <time>2026-08-15T08:02:23Z</time>
      </trkpt>
      <trkpt lat="44.59718" lon="0.76831">
        <ele>171.2</ele>
        <time>2026-08-15T08:02:24Z</time>
      </trkpt>
      <trkpt lat="44.59711" lon="0.76828">
        <ele>170.6</ele>
        <time>2026-08-15T08:02:25Z</time>
      </trkpt>
      <trkpt lat="44.59705" lon="0.76825">
        <ele>170.4</ele>
        <time>2026-08-15T08:02:26Z</time>
      </trkpt>
      <trkpt lat="44.597" lon="0.76823">
        <ele>170</ele>
        <time>2026-08-15T08:02:27Z</time>
      </trkpt>
      <trkpt lat="44.59695" lon="0.76821">
        <ele>169.6</ele>
        <time>2026-08-15T08:02:28Z</time>
      </trkpt>
      <trkpt lat="44.59692" lon="0.76819">
        <ele>169.2</ele>
        <time>2026-08-15T08:02:29Z</time>
      </trkpt>
      <trkpt lat="44.59687" lon="0.76818">
        <ele>168.6</ele>
        <time>2026-08-15T08:02:30Z</time>
      </trkpt>
      <trkpt lat="44.59683" lon="0.76816">
        <ele>168.2</ele>
        <time>2026-08-15T08:02:31Z</time>
      </trkpt>
      <trkpt lat="44.59678" lon="0.76814">
        <ele>167.6</ele>
        <time>2026-08-15T08:02:32Z</time>
      </trkpt>
      <trkpt lat="44.59674" lon="0.76812">
        <ele>167</ele>
        <time>2026-08-15T08:02:33Z</time>
      </trkpt>
      <trkpt lat="44.59672" lon="0.7681">
        <ele>166.6</ele>
        <time>2026-08-15T08:02:34Z</time>
      </trkpt>
      <trkpt lat="44.59669" lon="0.76809">
        <ele>165</ele>
        <time>2026-08-15T08:02:49Z</time>
      </trkpt>
      <trkpt lat="44.59667" lon="0.76808">
        <ele>165</ele>
        <time>2026-08-15T08:02:50Z</time>
      </trkpt>
      <trkpt lat="44.59665" lon="0.76807">
        <ele>165</ele>
        <time>2026-08-15T08:02:51Z</time>
      </trkpt>
      <trkpt lat="44.5966" lon="0.76805">
        <ele>164.8</ele>
        <time>2026-08-15T08:02:52Z</time>
      </trkpt>
      <trkpt lat="44.59658" lon="0.76804">
        <ele>164.8</ele>
        <time>2026-08-15T08:02:53Z</time>
      </trkpt>
      <trkpt lat="44.59654" lon="0.76802">
        <ele>164.6</ele>
        <time>2026-08-15T08:02:54Z</time>
      </trkpt>
      <trkpt lat="44.59648" lon="0.76799">
        <ele>164.4</ele>
        <time>2026-08-15T08:02:55Z</time>
      </trkpt>
      <trkpt lat="44.59643" lon="0.76797">
        <ele>164.4</ele>
        <time>2026-08-15T08:02:56Z</time>
      </trkpt>
      <trkpt lat="44.59639" lon="0.76795">
        <ele>163.8</ele>
        <time>2026-08-15T08:02:57Z</time>
      </trkpt>
      <trkpt lat="44.59635" lon="0.76793">
        <ele>163.6</ele>
        <time>2026-08-15T08:02:58Z</time>
      </trkpt>
      <trkpt lat="44.59631" lon="0.76791">
        <ele>163.2</ele>
        <time>2026-08-15T08:02:59Z</time>
      </trkpt>
      <trkpt lat="44.59627" lon="0.7679">
        <ele>162.8</ele>
        <time>2026-08-15T08:03:00Z</time>
      </trkpt>
      <trkpt lat="44.59624" lon="0.76788">
        <ele>162.6</ele>
        <time>2026-08-15T08:03:01Z</time>
      </trkpt>
      <trkpt lat="44.59619" lon="0.76787">
        <ele>162.4</ele>
        <time>2026-08-15T08:03:02Z</time>
      </trkpt>
      <trkpt lat="44.59615" lon="0.76785">
        <ele>162.4</ele>
        <time>2026-08-15T08:03:03Z</time>
      </trkpt>
      <trkpt lat="44.59611" lon="0.76784">
        <ele>162</ele>
        <time>2026-08-15T08:03:04Z</time>
      </trkpt>
      <trkpt lat="44.59606" lon="0.76782">
        <ele>161.8</ele>
        <time>2026-08-15T08:03:05Z</time>
      </trkpt>
      <trkpt lat="44.59602" lon="0.7678">
        <ele>161.6</ele>
        <time>2026-08-15T08:03:06Z</time>
      </trkpt>
      <trkpt lat="44.59597" lon="0.76778">
        <ele>161.6</ele>
        <time>2026-08-15T08:03:07Z</time>
      </trkpt>
      <trkpt lat="44.59592" lon="0.76777">
        <ele>161.4</ele>
        <time>2026-08-15T08:03:08Z</time>
      </trkpt>
      <trkpt lat="44.59587" lon="0.76777">
        <ele>161.4</ele>
        <time>2026-08-15T08:03:09Z</time>
      </trkpt>
      <trkpt lat="44.59583" lon="0.76777">
        <ele>161.2</ele>
        <time>2026-08-15T08:03:10Z</time>
      </trkpt>
      <trkpt lat="44.59578" lon="0.76778">
        <ele>161.2</ele>
        <time>2026-08-15T08:03:11Z</time>
      </trkpt>
      <trkpt lat="44.59574" lon="0.76778">
        <ele>160.8</ele>
        <time>2026-08-15T08:03:12Z</time>
      </trkpt>
      <trkpt lat="44.5957" lon="0.76778">
        <ele>160.8</ele>
        <time>2026-08-15T08:03:13Z</time>
      </trkpt>
      <trkpt lat="44.59566" lon="0.76777">
        <ele>160.6</ele>
        <time>2026-08-15T08:03:14Z</time>
      </trkpt>
      <trkpt lat="44.59562" lon="0.76777">
        <ele>160.6</ele>
        <time>2026-08-15T08:03:15Z</time>
      </trkpt>
      <trkpt lat="44.59558" lon="0.76776">
        <ele>160.6</ele>
        <time>2026-08-15T08:03:16Z</time>
      </trkpt>
      <trkpt lat="44.59554" lon="0.76775">
        <ele>160.6</ele>
        <time>2026-08-15T08:03:17Z</time>
      </trkpt>
      <trkpt lat="44.5955" lon="0.76775">
        <ele>160.4</ele>
        <time>2026-08-15T08:03:18Z</time>
      </trkpt>
      <trkpt lat="44.59546" lon="0.76775">
        <ele>160.4</ele>
        <time>2026-08-15T08:03:19Z</time>
      </trkpt>
      <trkpt lat="44.59542" lon="0.76775">
        <ele>160.4</ele>
        <time>2026-08-15T08:03:20Z</time>
      </trkpt>
      <trkpt lat="44.59538" lon="0.76777">
        <ele>160.4</ele>
        <time>2026-08-15T08:03:21Z</time>
      </trkpt>
      <trkpt lat="44.59534" lon="0.76778">
        <ele>160.4</ele>
        <time>2026-08-15T08:03:22Z</time>
      </trkpt>
      <trkpt lat="44.59529" lon="0.76781">
        <ele>160.4</ele>
        <time>2026-08-15T08:03:23Z</time>
      </trkpt>
      <trkpt lat="44.59525" lon="0.76783">
        <ele>160.4</ele>
        <time>2026-08-15T08:03:24Z</time>
      </trkpt>
      <trkpt lat="44.5952" lon="0.76785">
        <ele>160</ele>
        <time>2026-08-15T08:03:25Z</time>
      </trkpt>
      <trkpt lat="44.59515" lon="0.76787">
        <ele>159.8</ele>
        <time>2026-08-15T08:03:26Z</time>
      </trkpt>
      <trkpt lat="44.5951" lon="0.76788">
        <ele>159.6</ele>
        <time>2026-08-15T08:03:27Z</time>
      </trkpt>
      <trkpt lat="44.59504" lon="0.76789">
        <ele>159.4</ele>
        <time>2026-08-15T08:03:28Z</time>
      </trkpt>
      <trkpt lat="44.59499" lon="0.76789">
        <ele>159.2</ele>
        <time>2026-08-15T08:03:29Z</time>
      </trkpt>
      <trkpt lat="44.59493" lon="0.76788">
        <ele>159</ele>
        <time>2026-08-15T08:03:30Z</time>
      </trkpt>
      <trkpt lat="44.59486" lon="0.76787">
        <ele>158.8</ele>
        <time>2026-08-15T08:03:31Z</time>
      </trkpt>
      <trkpt lat="44.59481" lon="0.76786">
        <ele>158.8</ele>
        <time>2026-08-15T08:03:32Z</time>
      </trkpt>
      <trkpt lat="44.59476" lon="0.76784">
        <ele>158.6</ele>
        <time>2026-08-15T08:03:33Z</time>
      </trkpt>
      <trkpt lat="44.59472" lon="0.76782">
        <ele>158.6</ele>
        <time>2026-08-15T08:03:34Z</time>
      </trkpt>
      <trkpt lat="44.59468" lon="0.7678">
        <ele>158.6</ele>
        <time>2026-08-15T08:03:35Z</time>
      </trkpt>
      <trkpt lat="44.59464" lon="0.76779">
        <ele>158.6</ele>
        <time>2026-08-15T08:03:36Z</time>
      </trkpt>
      <trkpt lat="44.59459" lon="0.76778">
        <ele>158.6</ele>
        <time>2026-08-15T08:03:37Z</time>
      </trkpt>
      <trkpt lat="44.59455" lon="0.76777">
        <ele>158.6</ele>
        <time>2026-08-15T08:03:38Z</time>
      </trkpt>
      <trkpt lat="44.59451" lon="0.76775">
        <ele>158.6</ele>
        <time>2026-08-15T08:03:39Z</time>
      </trkpt>
      <trkpt lat="44.59447" lon="0.76774">
        <ele>158.4</ele>
        <time>2026-08-15T08:03:40Z</time>
      </trkpt>
      <trkpt lat="44.59443" lon="0.76773">
        <ele>158.4</ele>
        <time>2026-08-15T08:03:41Z</time>
      </trkpt>
      <trkpt lat="44.59439" lon="0.76772">
        <ele>158.6</ele>
        <time>2026-08-15T08:03:42Z</time>
      </trkpt>
      <trkpt lat="44.59434" lon="0.7677">
        <ele>158.6</ele>
        <time>2026-08-15T08:03:43Z</time>
      </trkpt>
      <trkpt lat="44.5943" lon="0.76769">
        <ele>158.8</ele>
        <time>2026-08-15T08:03:44Z</time>
      </trkpt>
      <trkpt lat="44.59427" lon="0.76768">
        <ele>158.8</ele>
        <time>2026-08-15T08:03:45Z</time>
      </trkpt>
      <trkpt lat="44.59423" lon="0.76767">
        <ele>159.2</ele>
        <time>2026-08-15T08:03:46Z</time>
      </trkpt>
      <trkpt lat="44.59419" lon="0.76765">
        <ele>159.2</ele>
        <time>2026-08-15T08:03:47Z</time>
      </trkpt>
      <trkpt lat="44.59416" lon="0.76764">
        <ele>159.4</ele>
        <time>2026-08-15T08:03:48Z</time>
      </trkpt>
      <trkpt lat="44.59412" lon="0.76762">
        <ele>159.6</ele>
        <time>2026-08-15T08:03:49Z</time>
      </trkpt>
      <trkpt lat="44.59409" lon="0.76761">
        <ele>159.8</ele>
        <time>2026-08-15T08:03:50Z</time>
      </trkpt>
      <trkpt lat="44.59405" lon="0.76759">
        <ele>160</ele>
        <time>2026-08-15T08:03:51Z</time>
      </trkpt>
      <trkpt lat="44.59402" lon="0.76757">
        <ele>160.2</ele>
        <time>2026-08-15T08:03:52Z</time>
      </trkpt>
      <trkpt lat="44.59398" lon="0.76755">
        <ele>160.4</ele>
        <time>2026-08-15T08:03:53Z</time>
      </trkpt>
      <trkpt lat="44.59395" lon="0.76753">
        <ele>160.6</ele>
        <time>2026-08-15T08:03:54Z</time>
      </trkpt>
      <trkpt lat="44.59392" lon="0.7675">
        <ele>160.6</ele>
        <time>2026-08-15T08:03:55Z</time>
      </trkpt>
      <trkpt lat="44.5939" lon="0.76747">
        <ele>160.6</ele>
        <time>2026-08-15T08:03:56Z</time>
      </trkpt>
      <trkpt lat="44.59388" lon="0.76744">
        <ele>160.6</ele>
        <time>2026-08-15T08:03:57Z</time>
      </trkpt>
      <trkpt lat="44.59385" lon="0.76741">
        <ele>160.6</ele>
        <time>2026-08-15T08:03:58Z</time>
      </trkpt>
      <trkpt lat="44.59383" lon="0.76739">
        <ele>160.6</ele>
        <time>2026-08-15T08:03:59Z</time>
      </trkpt>
      <trkpt lat="44.59381" lon="0.76738">
        <ele>160.6</ele>
        <time>2026-08-15T08:04:00Z</time>
      </trkpt>
      <trkpt lat="44.59378" lon="0.76736">
        <ele>160.4</ele>
        <time>2026-08-15T08:04:01Z</time>
      </trkpt>
      <trkpt lat="44.59376" lon="0.76735">
        <ele>160.4</ele>
        <time>2026-08-15T08:04:02Z</time>
      </trkpt>
      <trkpt lat="44.59373" lon="0.76733">
        <ele>160.2</ele>
        <time>2026-08-15T08:04:03Z</time>
      </trkpt>
      <trkpt lat="44.5937" lon="0.76731">
        <ele>160.2</ele>
        <time>2026-08-15T08:04:04Z</time>
      </trkpt>
      <trkpt lat="44.59367" lon="0.76728">
        <ele>160</ele>
        <time>2026-08-15T08:04:05Z</time>
      </trkpt>
      <trkpt lat="44.59365" lon="0.76726">
        <ele>160</ele>
        <time>2026-08-15T08:04:06Z</time>
      </trkpt>
      <trkpt lat="44.59363" lon="0.76723">
        <ele>159.8</ele>
        <time>2026-08-15T08:04:07Z</time>
      </trkpt>
      <trkpt lat="44.59361" lon="0.76719">
        <ele>159.8</ele>
        <time>2026-08-15T08:04:08Z</time>
      </trkpt>
      <trkpt lat="44.59359" lon="0.76716">
        <ele>159.8</ele>
        <time>2026-08-15T08:04:09Z</time>
      </trkpt>
      <trkpt lat="44.59358" lon="0.76712">
        <ele>159.8</ele>
        <time>2026-08-15T08:04:10Z</time>
      </trkpt>
      <trkpt lat="44.59356" lon="0.76708">
        <ele>159.8</ele>
        <time>2026-08-15T08:04:11Z</time>
      </trkpt>
      <trkpt lat="44.59353" lon="0.76705">
        <ele>159.8</ele>
        <time>2026-08-15T08:04:12Z</time>
      </trkpt>
      <trkpt lat="44.59351" lon="0.76701">
        <ele>159.8</ele>
        <time>2026-08-15T08:04:13Z</time>
      </trkpt>
      <trkpt lat="44.59348" lon="0.76697">
        <ele>159.8</ele>
        <time>2026-08-15T08:04:14Z</time>
      </trkpt>
      <trkpt lat="44.59344" lon="0.76693">
        <ele>159.8</ele>
        <time>2026-08-15T08:04:15Z</time>
      </trkpt>
      <trkpt lat="44.59342" lon="0.76689">
        <ele>159.8</ele>
        <time>2026-08-15T08:04:16Z</time>
      </trkpt>
      <trkpt lat="44.59339" lon="0.76685">
        <ele>159.8</ele>
        <time>2026-08-15T08:04:17Z</time>
      </trkpt>
      <trkpt lat="44.59336" lon="0.76681">
        <ele>159.8</ele>
        <time>2026-08-15T08:04:18Z</time>
      </trkpt>
      <trkpt lat="44.59334" lon="0.76677">
        <ele>159.8</ele>
        <time>2026-08-15T08:04:19Z</time>
      </trkpt>
      <trkpt lat="44.59331" lon="0.76674">
        <ele>159.8</ele>
        <time>2026-08-15T08:04:20Z</time>
      </trkpt>
      <trkpt lat="44.59328" lon="0.7667">
        <ele>159.8</ele>
        <time>2026-08-15T08:04:21Z</time>
      </trkpt>
      <trkpt lat="44.59325" lon="0.76668">
        <ele>159.8</ele>
        <time>2026-08-15T08:04:22Z</time>
      </trkpt>
      <trkpt lat="44.59322" lon="0.76666">
        <ele>159.8</ele>
        <time>2026-08-15T08:04:23Z</time>
      </trkpt>
      <trkpt lat="44.59319" lon="0.76664">
        <ele>159.6</ele>
        <time>2026-08-15T08:04:24Z</time>
      </trkpt>
      <trkpt lat="44.59317" lon="0.76663">
        <ele>159.6</ele>
        <time>2026-08-15T08:04:25Z</time>
      </trkpt>
      <trkpt lat="44.59316" lon="0.76662">
        <ele>159.6</ele>
        <time>2026-08-15T08:04:26Z</time>
      </trkpt>
      <trkpt lat="44.59314" lon="0.76661">
        <ele>159.6</ele>
        <time>2026-08-15T08:04:27Z</time>
      </trkpt>
      <trkpt lat="44.59312" lon="0.76661">
        <ele>159.6</ele>
        <time>2026-08-15T08:04:28Z</time>
      </trkpt>
      <trkpt lat="44.5931" lon="0.76661">
        <ele>159.6</ele>
        <time>2026-08-15T08:04:29Z</time>
      </trkpt>
      <trkpt lat="44.59307" lon="0.7666">
        <ele>159.6</ele>
        <time>2026-08-15T08:04:30Z</time>
      </trkpt>
      <trkpt lat="44.59302" lon="0.7666">
        <ele>159.6</ele>
        <time>2026-08-15T08:04:31Z</time>
      </trkpt>
      <trkpt lat="44.59298" lon="0.7666">
        <ele>159.6</ele>
        <time>2026-08-15T08:04:32Z</time>
      </trkpt>
      <trkpt lat="44.59295" lon="0.7666">
        <ele>159.6</ele>
        <time>2026-08-15T08:04:33Z</time>
      </trkpt>
      <trkpt lat="44.59291" lon="0.76661">
        <ele>159.6</ele>
        <time>2026-08-15T08:04:34Z</time>
      </trkpt>
      <trkpt lat="44.59287" lon="0.76661">
        <ele>159.6</ele>
        <time>2026-08-15T08:04:35Z</time>
      </trkpt>
      <trkpt lat="44.59283" lon="0.76662">
        <ele>159.6</ele>
        <time>2026-08-15T08:04:36Z</time>
      </trkpt>
      <trkpt lat="44.5928" lon="0.76662">
        <ele>159.8</ele>
        <time>2026-08-15T08:04:37Z</time>
      </trkpt>
      <trkpt lat="44.59276" lon="0.76661">
        <ele>159.8</ele>
        <time>2026-08-15T08:04:38Z</time>
      </trkpt>
      <trkpt lat="44.59273" lon="0.7666">
        <ele>159.8</ele>
        <time>2026-08-15T08:04:39Z</time>
      </trkpt>
      <trkpt lat="44.5927" lon="0.76658">
        <ele>159.8</ele>
        <time>2026-08-15T08:04:40Z</time>
      </trkpt>
      <trkpt lat="44.59267" lon="0.76656">
        <ele>159.8</ele>
        <time>2026-08-15T08:04:41Z</time>
      </trkpt>
      <trkpt lat="44.59264" lon="0.76652">
        <ele>160</ele>
        <time>2026-08-15T08:04:42Z</time>
      </trkpt>
      <trkpt lat="44.59262" lon="0.76649">
        <ele>160</ele>
        <time>2026-08-15T08:04:43Z</time>
      </trkpt>
      <trkpt lat="44.59259" lon="0.76645">
        <ele>160.2</ele>
        <time>2026-08-15T08:04:44Z</time>
      </trkpt>
      <trkpt lat="44.59257" lon="0.76641">
        <ele>160.2</ele>
        <time>2026-08-15T08:04:45Z</time>
      </trkpt>
      <trkpt lat="44.59254" lon="0.76638">
        <ele>160.2</ele>
        <time>2026-08-15T08:04:46Z</time>
      </trkpt>
      <trkpt lat="44.59252" lon="0.76634">
        <ele>160.4</ele>
        <time>2026-08-15T08:04:47Z</time>
      </trkpt>
      <trkpt lat="44.59249" lon="0.7663">
        <ele>160.6</ele>
        <time>2026-08-15T08:04:48Z</time>
      </trkpt>
      <trkpt lat="44.59247" lon="0.76627">
        <ele>160.4</ele>
        <time>2026-08-15T08:04:49Z</time>
      </trkpt>
      <trkpt lat="44.59244" lon="0.76623">
        <ele>160.4</ele>
        <time>2026-08-15T08:04:50Z</time>
      </trkpt>
      <trkpt lat="44.59242" lon="0.76619">
        <ele>160.6</ele>
        <time>2026-08-15T08:04:51Z</time>
      </trkpt>
      <trkpt lat="44.59239" lon="0.76616">
        <ele>160.6</ele>
        <time>2026-08-15T08:04:52Z</time>
      </trkpt>
      <trkpt lat="44.59237" lon="0.76612">
        <ele>160.6</ele>
        <time>2026-08-15T08:04:53Z</time>
      </trkpt>
      <trkpt lat="44.59235" lon="0.76608">
        <ele>160.6</ele>
        <time>2026-08-15T08:04:54Z</time>
      </trkpt>
      <trkpt lat="44.59232" lon="0.76604">
        <ele>160.6</ele>
        <time>2026-08-15T08:04:55Z</time>
      </trkpt>
      <trkpt lat="44.5923" lon="0.766">
        <ele>160.8</ele>
        <time>2026-08-15T08:04:56Z</time>
      </trkpt>
      <trkpt lat="44.59228" lon="0.76597">
        <ele>160.8</ele>
        <time>2026-08-15T08:04:57Z</time>
      </trkpt>
      <trkpt lat="44.59225" lon="0.76593">
        <ele>161</ele>
        <time>2026-08-15T08:04:58Z</time>
      </trkpt>
      <trkpt lat="44.59223" lon="0.76589">
        <ele>161.2</ele>
        <time>2026-08-15T08:04:59Z</time>
      </trkpt>
      <trkpt lat="44.5922" lon="0.76585">
        <ele>161.4</ele>
        <time>2026-08-15T08:05:00Z</time>
      </trkpt>
      <trkpt lat="44.59217" lon="0.76581">
        <ele>161.6</ele>
        <time>2026-08-15T08:05:01Z</time>
      </trkpt>
      <trkpt lat="44.59214" lon="0.76578">
        <ele>161.8</ele>
        <time>2026-08-15T08:05:02Z</time>
      </trkpt>
      <trkpt lat="44.59212" lon="0.76574">
        <ele>161.8</ele>
        <time>2026-08-15T08:05:03Z</time>
      </trkpt>
      <trkpt lat="44.59209" lon="0.76571">
        <ele>162.2</ele>
        <time>2026-08-15T08:05:04Z</time>
      </trkpt>
      <trkpt lat="44.59207" lon="0.76567">
        <ele>162.4</ele>
        <time>2026-08-15T08:05:05Z</time>
      </trkpt>
      <trkpt lat="44.59204" lon="0.76564">
        <ele>162.6</ele>
        <time>2026-08-15T08:05:06Z</time>
      </trkpt>
      <trkpt lat="44.59201" lon="0.7656">
        <ele>162.6</ele>
        <time>2026-08-15T08:05:07Z</time>
      </trkpt>
      <trkpt lat="44.59199" lon="0.76557">
        <ele>162.8</ele>
        <time>2026-08-15T08:05:08Z</time>
      </trkpt>
      <trkpt lat="44.59196" lon="0.76554">
        <ele>163.4</ele>
        <time>2026-08-15T08:05:09Z</time>
      </trkpt>
      <trkpt lat="44.59194" lon="0.7655">
        <ele>163.6</ele>
        <time>2026-08-15T08:05:10Z</time>
      </trkpt>
      <trkpt lat="44.59191" lon="0.76547">
        <ele>163.6</ele>
        <time>2026-08-15T08:05:11Z</time>
      </trkpt>
      <trkpt lat="44.59189" lon="0.76544">
        <ele>164</ele>
        <time>2026-08-15T08:05:12Z</time>
      </trkpt>
      <trkpt lat="44.59186" lon="0.76541">
        <ele>164.4</ele>
        <time>2026-08-15T08:05:13Z</time>
      </trkpt>
      <trkpt lat="44.59183" lon="0.76538">
        <ele>164.6</ele>
        <time>2026-08-15T08:05:14Z</time>
      </trkpt>
      <trkpt lat="44.59181" lon="0.76535">
        <ele>164.6</ele>
        <time>2026-08-15T08:05:15Z</time>
      </trkpt>
      <trkpt lat="44.59178" lon="0.76532">
        <ele>164.8</ele>
        <time>2026-08-15T08:05:16Z</time>
      </trkpt>
      <trkpt lat="44.59176" lon="0.76529">
        <ele>165</ele>
        <time>2026-08-15T08:05:17Z</time>
      </trkpt>
      <trkpt lat="44.59173" lon="0.76526">
        <ele>165.2</ele>
        <time>2026-08-15T08:05:18Z</time>
      </trkpt>
      <trkpt lat="44.5917" lon="0.76524">
        <ele>165.2</ele>
        <time>2026-08-15T08:05:19Z</time>
      </trkpt>
      <trkpt lat="44.59167" lon="0.76521">
        <ele>165.4</ele>
        <time>2026-08-15T08:05:20Z</time>
      </trkpt>
      <trkpt lat="44.59164" lon="0.76518">
        <ele>165.4</ele>
        <time>2026-08-15T08:05:21Z</time>
      </trkpt>
      <trkpt lat="44.59161" lon="0.76516">
        <ele>165.6</ele>
        <time>2026-08-15T08:05:22Z</time>
      </trkpt>
      <trkpt lat="44.59158" lon="0.76513">
        <ele>165.6</ele>
        <time>2026-08-15T08:05:23Z</time>
      </trkpt>
      <trkpt lat="44.59155" lon="0.7651">
        <ele>165.6</ele>
        <time>2026-08-15T08:05:24Z</time>
      </trkpt>
      <trkpt lat="44.59152" lon="0.76509">
        <ele>165.6</ele>
        <time>2026-08-15T08:05:25Z</time>
      </trkpt>
      <trkpt lat="44.59152" lon="0.76509">
        <ele>165.6</ele>
        <time>2026-08-15T08:05:26Z</time>
      </trkpt>
      <trkpt lat="44.59152" lon="0.76509">
        <ele>165.8</ele>
        <time>2026-08-15T08:05:27Z</time>
      </trkpt>
      <trkpt lat="44.59152" lon="0.76509">
        <ele>165.8</ele>
        <time>2026-08-15T08:05:28Z</time>
      </trkpt>
      <trkpt lat="44.59152" lon="0.76509">
        <ele>165.8</ele>
        <time>2026-08-15T08:05:29Z</time>
      </trkpt>
      <trkpt lat="44.59148" lon="0.76507">
        <ele>166</ele>
        <time>2026-08-15T08:05:42Z</time>
      </trkpt>
      <trkpt lat="44.59146" lon="0.76508">
        <ele>166.2</ele>
        <time>2026-08-15T08:05:43Z</time>
      </trkpt>
      <trkpt lat="44.59145" lon="0.76508">
        <ele>166.2</ele>
        <time>2026-08-15T08:05:44Z</time>
      </trkpt>
      <trkpt lat="44.59143" lon="0.7651">
        <ele>166.2</ele>
        <time>2026-08-15T08:05:45Z</time>
        <extensions>
          <visugpx:TrkExtension xmlns:visugpx="https://www.visugpx.com/editgpx/">
            <visugpx:node>1</visugpx:node>
            </visugpx:TrkExtension>
        </extensions>
      </trkpt>
    </trkseg>
  </trk>
</gpx>